<?xml version='1.0' encoding='UTF-8'?><gpx version="1.1" creator="JPX - https://github.com/jenetics/jpx" xmlns="http://www.topografix.com/GPX/1/1"><trk><trkseg><trkpt lat="45.7172931" lon="10.7847903"><ele>301.0</ele><time>2026-04-06T08:48:30.05Z</time></trkpt><trkpt lat="45.717426" lon="10.7848143"><ele>301.0</ele><time>2026-04-06T08:48:32.021Z</time></trkpt><trkpt lat="45.7175355" lon="10.7848533"><ele>301.0</ele><time>2026-04-06T08:48:34.021Z</time></trkpt><trkpt lat="45.7176502" lon="10.7848669"><ele>301.0</ele><time>2026-04-06T08:48:36.021Z</time></trkpt><trkpt lat="45.7177137" lon="10.7848712"><ele>301.0</ele><time>2026-04-06T08:48:37.021Z</time></trkpt><trkpt lat="45.7178254" lon="10.7848478"><ele>297.5</ele><time>2026-04-06T08:48:39.021Z</time></trkpt><trkpt lat="45.7179388" lon="10.7847827"><ele>294.0</ele><time>2026-04-06T08:48:41.021Z</time></trkpt><trkpt lat="45.7180032" lon="10.7847713"><ele>290.5</ele><time>2026-04-06T08:48:42.022Z</time></trkpt><trkpt lat="45.7181189" lon="10.78481"><ele>287.0</ele><time>2026-04-06T08:48:44.021Z</time></trkpt><trkpt lat="45.7181694" lon="10.7848685"><ele>283.5</ele><time>2026-04-06T08:48:45.021Z</time></trkpt><trkpt lat="45.7182179" lon="10.7849375"><ele>280.0</ele><time>2026-04-06T08:48:46.021Z</time></trkpt><trkpt lat="45.7183099" lon="10.7850461"><ele>280.0</ele><time>2026-04-06T08:48:48.022Z</time></trkpt><trkpt lat="45.7183729" lon="10.7850691"><ele>280.0</ele><time>2026-04-06T08:48:49.021Z</time></trkpt><trkpt lat="45.7184457" lon="10.7850767"><ele>280.0</ele><time>2026-04-06T08:48:50.021Z</time></trkpt><trkpt lat="45.7185204" lon="10.7850816"><ele>280.0</ele><time>2026-04-06T08:48:51.021Z</time></trkpt><trkpt lat="45.7185987" lon="10.7850879"><ele>280.0</ele><time>2026-04-06T08:48:52.021Z</time></trkpt><trkpt lat="45.7186812" lon="10.7850992"><ele>280.0</ele><time>2026-04-06T08:48:53.021Z</time></trkpt><trkpt lat="45.7187666" lon="10.7851139"><ele>280.16666666666663</ele><time>2026-04-06T08:48:54.021Z</time></trkpt><trkpt lat="45.7188543" lon="10.7851337"><ele>280.3333333333333</ele><time>2026-04-06T08:48:55.021Z</time></trkpt><trkpt lat="45.7189368" lon="10.7851565"><ele>280.5</ele><time>2026-04-06T08:48:56.021Z</time></trkpt><trkpt lat="45.7190177" lon="10.7851862"><ele>280.6666666666667</ele><time>2026-04-06T08:48:57.021Z</time></trkpt><trkpt lat="45.7190952" lon="10.7852133"><ele>280.83333333333337</ele><time>2026-04-06T08:48:58.021Z</time></trkpt><trkpt lat="45.7191714" lon="10.7852372"><ele>281.0</ele><time>2026-04-06T08:48:59.021Z</time></trkpt><trkpt lat="45.7192472" lon="10.7852597"><ele>281.0</ele><time>2026-04-06T08:49:00.021Z</time></trkpt><trkpt lat="45.7193225" lon="10.7852805"><ele>281.0</ele><time>2026-04-06T08:49:01.021Z</time></trkpt><trkpt lat="45.7193986" lon="10.7853017"><ele>281.0</ele><time>2026-04-06T08:49:02.021Z</time></trkpt><trkpt lat="45.7194729" lon="10.7853256"><ele>281.0</ele><time>2026-04-06T08:49:03.021Z</time></trkpt><trkpt lat="45.7195365" lon="10.7853541"><ele>281.0</ele><time>2026-04-06T08:49:04.021Z</time></trkpt><trkpt lat="45.7196178" lon="10.7854288"><ele>281.0</ele><time>2026-04-06T08:49:06.023Z</time></trkpt><trkpt lat="45.7196651" lon="10.7853202"><ele>276.8</ele><time>2026-04-06T08:49:09.022Z</time></trkpt><trkpt lat="45.7195744" lon="10.7852041"><ele>272.6</ele><time>2026-04-06T08:49:11.022Z</time></trkpt><trkpt lat="45.7195058" lon="10.7851498"><ele>268.4</ele><time>2026-04-06T08:49:12.022Z</time></trkpt><trkpt lat="45.7194333" lon="10.7850772"><ele>264.2</ele><time>2026-04-06T08:49:13.022Z</time></trkpt><trkpt lat="45.7193654" lon="10.7849936"><ele>260.0</ele><time>2026-04-06T08:49:14.022Z</time></trkpt><trkpt lat="45.7192999" lon="10.7849017"><ele>259.4</ele><time>2026-04-06T08:49:15.022Z</time></trkpt><trkpt lat="45.7192339" lon="10.7848032"><ele>258.8</ele><time>2026-04-06T08:49:16.022Z</time></trkpt><trkpt lat="45.7191602" lon="10.7847035"><ele>258.2</ele><time>2026-04-06T08:49:17.022Z</time></trkpt><trkpt lat="45.7190825" lon="10.784606"><ele>257.6</ele><time>2026-04-06T08:49:18.022Z</time></trkpt><trkpt lat="45.719003" lon="10.7845"><ele>257.0</ele><time>2026-04-06T08:49:19.022Z</time></trkpt><trkpt lat="45.7189285" lon="10.7843903"><ele>251.8</ele><time>2026-04-06T08:49:20.022Z</time></trkpt><trkpt lat="45.7188571" lon="10.7842807"><ele>246.6</ele><time>2026-04-06T08:49:21.023Z</time></trkpt><trkpt lat="45.7187912" lon="10.7841714"><ele>241.40000000000003</ele><time>2026-04-06T08:49:22.022Z</time></trkpt><trkpt lat="45.7187305" lon="10.7840735"><ele>236.20000000000002</ele><time>2026-04-06T08:49:23.022Z</time></trkpt><trkpt lat="45.7186758" lon="10.7839689"><ele>231.0</ele><time>2026-04-06T08:49:24.022Z</time></trkpt><trkpt lat="45.7186326" lon="10.7838524"><ele>231.0</ele><time>2026-04-06T08:49:25.022Z</time></trkpt><trkpt lat="45.7186036" lon="10.7837409"><ele>231.00000000000003</ele><time>2026-04-06T08:49:26.022Z</time></trkpt><trkpt lat="45.7185805" lon="10.7836538"><ele>231.00000000000003</ele><time>2026-04-06T08:49:27.022Z</time></trkpt><trkpt lat="45.7185177" lon="10.7835266"><ele>231.0</ele><time>2026-04-06T08:49:29.022Z</time></trkpt><trkpt lat="45.7183984" lon="10.783458"><ele>231.0</ele><time>2026-04-06T08:49:31.022Z</time></trkpt><trkpt lat="45.7183347" lon="10.7834149"><ele>231.4</ele><time>2026-04-06T08:49:32.022Z</time></trkpt><trkpt lat="45.7182856" lon="10.7833398"><ele>231.8</ele><time>2026-04-06T08:49:33.022Z</time></trkpt><trkpt lat="45.7182506" lon="10.7832348"><ele>232.20000000000002</ele><time>2026-04-06T08:49:34.023Z</time></trkpt><trkpt lat="45.7182204" lon="10.7831036"><ele>232.60000000000002</ele><time>2026-04-06T08:49:35.022Z</time></trkpt><trkpt lat="45.7181882" lon="10.7829675"><ele>233.0</ele><time>2026-04-06T08:49:36.022Z</time></trkpt><trkpt lat="45.7181533" lon="10.7828285"><ele>233.0</ele><time>2026-04-06T08:49:37.022Z</time></trkpt><trkpt lat="45.7181199" lon="10.7826942"><ele>233.0</ele><time>2026-04-06T08:49:38.023Z</time></trkpt><trkpt lat="45.7180903" lon="10.7825721"><ele>233.0</ele><time>2026-04-06T08:49:39.022Z</time></trkpt><trkpt lat="45.7180572" lon="10.7824488"><ele>233.0</ele><time>2026-04-06T08:49:40.023Z</time></trkpt><trkpt lat="45.7180212" lon="10.7823246"><ele>233.0</ele><time>2026-04-06T08:49:41.022Z</time></trkpt><trkpt lat="45.717978" lon="10.7822048"><ele>228.60000000000002</ele><time>2026-04-06T08:49:42.022Z</time></trkpt><trkpt lat="45.7179298" lon="10.782091"><ele>224.20000000000002</ele><time>2026-04-06T08:49:43.022Z</time></trkpt><trkpt lat="45.7178833" lon="10.7819876"><ele>219.8</ele><time>2026-04-06T08:49:44.022Z</time></trkpt><trkpt lat="45.7178308" lon="10.7818644"><ele>215.4</ele><time>2026-04-06T08:49:46.022Z</time></trkpt><trkpt lat="45.7177647" lon="10.7817911"><ele>211.0</ele><time>2026-04-06T08:49:49.022Z</time></trkpt><trkpt lat="45.7178473" lon="10.78175"><ele>211.0</ele><time>2026-04-06T08:49:53.023Z</time></trkpt><trkpt lat="45.7179906" lon="10.7818651"><ele>211.0</ele><time>2026-04-06T08:49:55.022Z</time></trkpt><trkpt lat="45.7180811" lon="10.7819229"><ele>211.0</ele><time>2026-04-06T08:49:56.022Z</time></trkpt><trkpt lat="45.7181829" lon="10.781968"><ele>211.0</ele><time>2026-04-06T08:49:57.022Z</time></trkpt><trkpt lat="45.7182805" lon="10.7820053"><ele>211.0</ele><time>2026-04-06T08:49:58.022Z</time></trkpt><trkpt lat="45.7183772" lon="10.782049"><ele>211.0</ele><time>2026-04-06T08:49:59.022Z</time></trkpt><trkpt lat="45.7184696" lon="10.7820987"><ele>211.0</ele><time>2026-04-06T08:50:00.022Z</time></trkpt><trkpt lat="45.718562" lon="10.7821473"><ele>211.0</ele><time>2026-04-06T08:50:01.022Z</time></trkpt><trkpt lat="45.7186527" lon="10.782197"><ele>211.0</ele><time>2026-04-06T08:50:02.022Z</time></trkpt><trkpt lat="45.7187471" lon="10.7822501"><ele>207.16666666666666</ele><time>2026-04-06T08:50:03.022Z</time></trkpt><trkpt lat="45.7188364" lon="10.7823024"><ele>203.33333333333331</ele><time>2026-04-06T08:50:04.023Z</time></trkpt><trkpt lat="45.7189029" lon="10.782337"><ele>199.5</ele><time>2026-04-06T08:50:05.022Z</time></trkpt><trkpt lat="45.718968" lon="10.7823879"><ele>195.66666666666666</ele><time>2026-04-06T08:50:07.022Z</time></trkpt><trkpt lat="45.719049" lon="10.7823439"><ele>191.83333333333331</ele><time>2026-04-06T08:50:10.023Z</time></trkpt><trkpt lat="45.7189901" lon="10.7822296"><ele>188.0</ele><time>2026-04-06T08:50:12.023Z</time></trkpt><trkpt lat="45.7189281" lon="10.7821825"><ele>188.0</ele><time>2026-04-06T08:50:13.023Z</time></trkpt><trkpt lat="45.7188673" lon="10.782107"><ele>188.0</ele><time>2026-04-06T08:50:14.023Z</time></trkpt><trkpt lat="45.7188047" lon="10.7819895"><ele>188.0</ele><time>2026-04-06T08:50:15.023Z</time></trkpt><trkpt lat="45.7187424" lon="10.7818607"><ele>188.0</ele><time>2026-04-06T08:50:16.024Z</time></trkpt><trkpt lat="45.7186883" lon="10.7817477"><ele>188.0</ele><time>2026-04-06T08:50:17.023Z</time></trkpt><trkpt lat="45.7186388" lon="10.7816433"><ele>188.5</ele><time>2026-04-06T08:50:18.023Z</time></trkpt><trkpt lat="45.7185881" lon="10.7815508"><ele>189.0</ele><time>2026-04-06T08:50:19.024Z</time></trkpt><trkpt lat="45.7185305" lon="10.7814685"><ele>189.5</ele><time>2026-04-06T08:50:20.023Z</time></trkpt><trkpt lat="45.7184714" lon="10.7813879"><ele>190.0</ele><time>2026-04-06T08:50:21.023Z</time></trkpt><trkpt lat="45.7184212" lon="10.7812996"><ele>190.5</ele><time>2026-04-06T08:50:22.023Z</time></trkpt><trkpt lat="45.7183845" lon="10.7811997"><ele>191.0</ele><time>2026-04-06T08:50:23.024Z</time></trkpt><trkpt lat="45.7183596" lon="10.781113"><ele>187.4</ele><time>2026-04-06T08:50:24.024Z</time></trkpt><trkpt lat="45.7183541" lon="10.7809436"><ele>183.8</ele><time>2026-04-06T08:50:26.023Z</time></trkpt><trkpt lat="45.7183654" lon="10.7808052"><ele>180.20000000000002</ele><time>2026-04-06T08:50:28.023Z</time></trkpt><trkpt lat="45.7183152" lon="10.7807341"><ele>176.60000000000002</ele><time>2026-04-06T08:50:30.023Z</time></trkpt><trkpt lat="45.7181935" lon="10.7807312"><ele>173.0</ele><time>2026-04-06T08:50:32.023Z</time></trkpt><trkpt lat="45.7181249" lon="10.7806927"><ele>173.0</ele><time>2026-04-06T08:50:33.023Z</time></trkpt><trkpt lat="45.7180613" lon="10.7806285"><ele>173.0</ele><time>2026-04-06T08:50:34.023Z</time></trkpt><trkpt lat="45.7180069" lon="10.7805481"><ele>173.0</ele><time>2026-04-06T08:50:35.023Z</time></trkpt><trkpt lat="45.7179642" lon="10.7804689"><ele>173.0</ele><time>2026-04-06T08:50:36.023Z</time></trkpt><trkpt lat="45.7179228" lon="10.7803879"><ele>173.0</ele><time>2026-04-06T08:50:37.023Z</time></trkpt><trkpt lat="45.7178837" lon="10.78031"><ele>173.0</ele><time>2026-04-06T08:50:38.023Z</time></trkpt><trkpt lat="45.7178464" lon="10.7802306"><ele>173.0</ele><time>2026-04-06T08:50:39.023Z</time></trkpt><trkpt lat="45.7178167" lon="10.7801487"><ele>174.0</ele><time>2026-04-06T08:50:40.023Z</time></trkpt><trkpt lat="45.7177944" lon="10.7800635"><ele>175.0</ele><time>2026-04-06T08:50:41.024Z</time></trkpt><trkpt lat="45.7177727" lon="10.7799508"><ele>176.0</ele><time>2026-04-06T08:50:42.023Z</time></trkpt><trkpt lat="45.7177434" lon="10.7798308"><ele>177.0</ele><time>2026-04-06T08:50:43.023Z</time></trkpt><trkpt lat="45.7176983" lon="10.7797089"><ele>178.0</ele><time>2026-04-06T08:50:44.023Z</time></trkpt><trkpt lat="45.7176549" lon="10.7796007"><ele>179.0</ele><time>2026-04-06T08:50:45.023Z</time></trkpt><trkpt lat="45.7176321" lon="10.7795031"><ele>179.0</ele><time>2026-04-06T08:50:46.023Z</time></trkpt><trkpt lat="45.7176241" lon="10.7794122"><ele>179.0</ele><time>2026-04-06T08:50:47.023Z</time></trkpt><trkpt lat="45.7175909" lon="10.7792689"><ele>179.0</ele><time>2026-04-06T08:50:49.023Z</time></trkpt><trkpt lat="45.7174866" lon="10.7791831"><ele>179.0</ele><time>2026-04-06T08:50:51.023Z</time></trkpt><trkpt lat="45.7174332" lon="10.7791317"><ele>179.0</ele><time>2026-04-06T08:50:52.023Z</time></trkpt><trkpt lat="45.7173693" lon="10.7789778"><ele>176.33333333333331</ele><time>2026-04-06T08:50:54.023Z</time></trkpt><trkpt lat="45.717368" lon="10.7788785"><ele>173.66666666666666</ele><time>2026-04-06T08:50:55.023Z</time></trkpt><trkpt lat="45.717372" lon="10.7787732"><ele>171.0</ele><time>2026-04-06T08:50:56.023Z</time></trkpt><trkpt lat="45.717364" lon="10.7786664"><ele>168.33333333333334</ele><time>2026-04-06T08:50:57.023Z</time></trkpt><trkpt lat="45.7173319" lon="10.7785512"><ele>165.66666666666669</ele><time>2026-04-06T08:50:58.023Z</time></trkpt><trkpt lat="45.7172936" lon="10.778429"><ele>163.0</ele><time>2026-04-06T08:50:59.023Z</time></trkpt><trkpt lat="45.7172598" lon="10.7782977"><ele>159.83333333333334</ele><time>2026-04-06T08:51:00.023Z</time></trkpt><trkpt lat="45.7172326" lon="10.7781708"><ele>156.66666666666669</ele><time>2026-04-06T08:51:01.023Z</time></trkpt><trkpt lat="45.7172076" lon="10.778052"><ele>153.5</ele><time>2026-04-06T08:51:02.024Z</time></trkpt><trkpt lat="45.7171853" lon="10.7779414"><ele>150.33333333333334</ele><time>2026-04-06T08:51:03.023Z</time></trkpt><trkpt lat="45.7171643" lon="10.7778279"><ele>147.16666666666666</ele><time>2026-04-06T08:51:04.023Z</time></trkpt><trkpt lat="45.717139" lon="10.7777187"><ele>144.0</ele><time>2026-04-06T08:51:05.023Z</time></trkpt><trkpt lat="45.7171052" lon="10.7776122"><ele>145.66666666666666</ele><time>2026-04-06T08:51:06.023Z</time></trkpt><trkpt lat="45.7170686" lon="10.7775113"><ele>147.33333333333334</ele><time>2026-04-06T08:51:07.023Z</time></trkpt><trkpt lat="45.71703" lon="10.7774211"><ele>149.0</ele><time>2026-04-06T08:51:08.023Z</time></trkpt><trkpt lat="45.7169868" lon="10.7772842"><ele>150.66666666666669</ele><time>2026-04-06T08:51:10.023Z</time></trkpt><trkpt lat="45.7169534" lon="10.7771805"><ele>152.33333333333334</ele><time>2026-04-06T08:51:12.023Z</time></trkpt><trkpt lat="45.7169113" lon="10.7770382"><ele>154.0</ele><time>2026-04-06T08:51:14.024Z</time></trkpt><trkpt lat="45.7169" lon="10.7769149"><ele>152.33333333333334</ele><time>2026-04-06T08:51:16.024Z</time></trkpt><trkpt lat="45.7168832" lon="10.7767936"><ele>150.66666666666669</ele><time>2026-04-06T08:51:18.025Z</time></trkpt><trkpt lat="45.716813" lon="10.7766748"><ele>149.0</ele><time>2026-04-06T08:51:20.025Z</time></trkpt><trkpt lat="45.7167435" lon="10.7765996"><ele>147.33333333333334</ele><time>2026-04-06T08:51:21.024Z</time></trkpt><trkpt lat="45.7166848" lon="10.7765329"><ele>145.66666666666666</ele><time>2026-04-06T08:51:22.024Z</time></trkpt><trkpt lat="45.716636" lon="10.7764719"><ele>144.0</ele><time>2026-04-06T08:51:23.024Z</time></trkpt><trkpt lat="45.7165816" lon="10.7764244"><ele>144.0</ele><time>2026-04-06T08:51:24.024Z</time></trkpt><trkpt lat="45.7164767" lon="10.7763308"><ele>144.0</ele><time>2026-04-06T08:51:26.024Z</time></trkpt><trkpt lat="45.7163815" lon="10.7762396"><ele>144.0</ele><time>2026-04-06T08:51:28.024Z</time></trkpt><trkpt lat="45.716306" lon="10.7761511"><ele>144.0</ele><time>2026-04-06T08:51:30.024Z</time></trkpt><trkpt lat="45.7162769" lon="10.776062"><ele>144.0</ele><time>2026-04-06T08:51:31.024Z</time></trkpt><trkpt lat="45.7162534" lon="10.7759532"><ele>144.83333333333334</ele><time>2026-04-06T08:51:33.024Z</time></trkpt><trkpt lat="45.7162031" lon="10.7758173"><ele>145.66666666666666</ele><time>2026-04-06T08:51:35.024Z</time></trkpt><trkpt lat="45.7161518" lon="10.7757506"><ele>146.5</ele><time>2026-04-06T08:51:36.024Z</time></trkpt><trkpt lat="45.7161038" lon="10.7756874"><ele>147.33333333333331</ele><time>2026-04-06T08:51:37.024Z</time></trkpt><trkpt lat="45.7160531" lon="10.7756073"><ele>148.16666666666666</ele><time>2026-04-06T08:51:38.024Z</time></trkpt><trkpt lat="45.7159932" lon="10.7755157"><ele>149.0</ele><time>2026-04-06T08:51:39.024Z</time></trkpt><trkpt lat="45.7159245" lon="10.7754109"><ele>149.0</ele><time>2026-04-06T08:51:40.025Z</time></trkpt><trkpt lat="45.7158468" lon="10.7753117"><ele>149.0</ele><time>2026-04-06T08:51:41.024Z</time></trkpt><trkpt lat="45.7157725" lon="10.7752315"><ele>149.0</ele><time>2026-04-06T08:51:42.025Z</time></trkpt><trkpt lat="45.715703" lon="10.7751689"><ele>149.0</ele><time>2026-04-06T08:51:43.024Z</time></trkpt><trkpt lat="45.7156334" lon="10.7751428"><ele>149.0</ele><time>2026-04-06T08:51:44.024Z</time></trkpt><trkpt lat="45.7155717" lon="10.7751067"><ele>149.0</ele><time>2026-04-06T08:51:45.024Z</time></trkpt><trkpt lat="45.7155084" lon="10.7750719"><ele>149.16666666666666</ele><time>2026-04-06T08:51:46.025Z</time></trkpt><trkpt lat="45.7154119" lon="10.7749605"><ele>149.33333333333331</ele><time>2026-04-06T08:51:48.025Z</time></trkpt><trkpt lat="45.7153774" lon="10.774871"><ele>149.5</ele><time>2026-04-06T08:51:49.024Z</time></trkpt><trkpt lat="45.7153491" lon="10.7747662"><ele>149.66666666666666</ele><time>2026-04-06T08:51:50.024Z</time></trkpt><trkpt lat="45.715321" lon="10.7746632"><ele>149.83333333333334</ele><time>2026-04-06T08:51:51.024Z</time></trkpt><trkpt lat="45.7152862" lon="10.7745846"><ele>150.0</ele><time>2026-04-06T08:51:52.024Z</time></trkpt><trkpt lat="45.7152338" lon="10.7745241"><ele>150.0</ele><time>2026-04-06T08:51:53.024Z</time></trkpt><trkpt lat="45.7151525" lon="10.7744894"><ele>150.0</ele><time>2026-04-06T08:51:54.024Z</time></trkpt><trkpt lat="45.7150538" lon="10.7744621"><ele>150.0</ele><time>2026-04-06T08:51:55.024Z</time></trkpt><trkpt lat="45.7149607" lon="10.7744354"><ele>150.0</ele><time>2026-04-06T08:51:56.024Z</time></trkpt><trkpt lat="45.7148872" lon="10.7744034"><ele>150.0</ele><time>2026-04-06T08:51:57.024Z</time></trkpt><trkpt lat="45.7148218" lon="10.7742576"><ele>146.2</ele><time>2026-04-06T08:51:59.024Z</time></trkpt><trkpt lat="45.7148059" lon="10.7741543"><ele>142.4</ele><time>2026-04-06T08:52:00.024Z</time></trkpt><trkpt lat="45.7147849" lon="10.7740244"><ele>138.6</ele><time>2026-04-06T08:52:01.024Z</time></trkpt><trkpt lat="45.7147736" lon="10.7738582"><ele>134.8</ele><time>2026-04-06T08:52:02.024Z</time></trkpt><trkpt lat="45.7147634" lon="10.7736976"><ele>131.0</ele><time>2026-04-06T08:52:03.024Z</time></trkpt><trkpt lat="45.7147306" lon="10.7735908"><ele>130.66666666666666</ele><time>2026-04-06T08:52:04.024Z</time></trkpt><trkpt lat="45.7146763" lon="10.7734953"><ele>130.33333333333331</ele><time>2026-04-06T08:52:05.024Z</time></trkpt><trkpt lat="45.714604" lon="10.7734134"><ele>130.0</ele><time>2026-04-06T08:52:06.025Z</time></trkpt><trkpt lat="45.7145366" lon="10.7733637"><ele>129.66666666666666</ele><time>2026-04-06T08:52:07.025Z</time></trkpt><trkpt lat="45.7144637" lon="10.7733433"><ele>129.33333333333334</ele><time>2026-04-06T08:52:08.024Z</time></trkpt><trkpt lat="45.7143791" lon="10.7733595"><ele>129.0</ele><time>2026-04-06T08:52:09.024Z</time></trkpt><trkpt lat="45.7142879" lon="10.7733958"><ele>129.0</ele><time>2026-04-06T08:52:10.025Z</time></trkpt><trkpt lat="45.7142011" lon="10.7734057"><ele>129.0</ele><time>2026-04-06T08:52:11.024Z</time></trkpt><trkpt lat="45.714119" lon="10.7733718"><ele>129.0</ele><time>2026-04-06T08:52:12.024Z</time></trkpt><trkpt lat="45.7140406" lon="10.7732977"><ele>129.0</ele><time>2026-04-06T08:52:13.024Z</time></trkpt><trkpt lat="45.7139605" lon="10.7731896"><ele>129.0</ele><time>2026-04-06T08:52:14.024Z</time></trkpt><trkpt lat="45.71388" lon="10.7730775"><ele>129.0</ele><time>2026-04-06T08:52:15.024Z</time></trkpt><trkpt lat="45.7137852" lon="10.7729845"><ele>129.0</ele><time>2026-04-06T08:52:16.024Z</time></trkpt><trkpt lat="45.7136842" lon="10.7729225"><ele>129.0</ele><time>2026-04-06T08:52:17.025Z</time></trkpt><trkpt lat="45.7135931" lon="10.772868"><ele>129.0</ele><time>2026-04-06T08:52:18.025Z</time></trkpt><trkpt lat="45.7135044" lon="10.7728133"><ele>129.0</ele><time>2026-04-06T08:52:19.025Z</time></trkpt><trkpt lat="45.7134182" lon="10.7727557"><ele>128.33333333333334</ele><time>2026-04-06T08:52:20.025Z</time></trkpt><trkpt lat="45.7133354" lon="10.7727022"><ele>127.66666666666666</ele><time>2026-04-06T08:52:21.025Z</time></trkpt><trkpt lat="45.7132529" lon="10.7726533"><ele>127.0</ele><time>2026-04-06T08:52:22.025Z</time></trkpt><trkpt lat="45.7131764" lon="10.7726104"><ele>126.33333333333333</ele><time>2026-04-06T08:52:23.025Z</time></trkpt><trkpt lat="45.7131072" lon="10.7725696"><ele>125.66666666666666</ele><time>2026-04-06T08:52:24.026Z</time></trkpt><trkpt lat="45.7130494" lon="10.7725226"><ele>125.0</ele><time>2026-04-06T08:52:25.025Z</time></trkpt><trkpt lat="45.7129504" lon="10.772411"><ele>124.99999999999999</ele><time>2026-04-06T08:52:27.025Z</time></trkpt><trkpt lat="45.7128996" lon="10.7723378"><ele>125.0</ele><time>2026-04-06T08:52:28.025Z</time></trkpt><trkpt lat="45.7128513" lon="10.7722393"><ele>125.0</ele><time>2026-04-06T08:52:29.025Z</time></trkpt><trkpt lat="45.7128041" lon="10.7721442"><ele>125.0</ele><time>2026-04-06T08:52:30.025Z</time></trkpt><trkpt lat="45.7127632" lon="10.7720631"><ele>124.99999999999999</ele><time>2026-04-06T08:52:31.025Z</time></trkpt><trkpt lat="45.7127002" lon="10.7719943"><ele>125.0</ele><time>2026-04-06T08:52:32.026Z</time></trkpt><trkpt lat="45.7126347" lon="10.7719108"><ele>124.25</ele><time>2026-04-06T08:52:33.025Z</time></trkpt><trkpt lat="45.7125542" lon="10.7718208"><ele>123.5</ele><time>2026-04-06T08:52:34.025Z</time></trkpt><trkpt lat="45.7124681" lon="10.7717072"><ele>122.75</ele><time>2026-04-06T08:52:35.025Z</time></trkpt><trkpt lat="45.7123798" lon="10.7715847"><ele>122.0</ele><time>2026-04-06T08:52:36.025Z</time></trkpt><trkpt lat="45.7122889" lon="10.7714801"><ele>122.0</ele><time>2026-04-06T08:52:37.025Z</time></trkpt><trkpt lat="45.7122038" lon="10.7713926"><ele>121.99999999999999</ele><time>2026-04-06T08:52:38.025Z</time></trkpt><trkpt lat="45.7121236" lon="10.7713178"><ele>121.99999999999999</ele><time>2026-04-06T08:52:39.025Z</time></trkpt><trkpt lat="45.7120374" lon="10.7712522"><ele>122.0</ele><time>2026-04-06T08:52:40.025Z</time></trkpt><trkpt lat="45.711952" lon="10.7711949"><ele>122.0</ele><time>2026-04-06T08:52:41.025Z</time></trkpt><trkpt lat="45.7118785" lon="10.7711391"><ele>120.33333333333333</ele><time>2026-04-06T08:52:42.025Z</time></trkpt><trkpt lat="45.7118129" lon="10.7710744"><ele>118.66666666666666</ele><time>2026-04-06T08:52:43.025Z</time></trkpt><trkpt lat="45.7117496" lon="10.770992"><ele>117.0</ele><time>2026-04-06T08:52:44.025Z</time></trkpt><trkpt lat="45.7116924" lon="10.7708885"><ele>115.33333333333334</ele><time>2026-04-06T08:52:45.025Z</time></trkpt><trkpt lat="45.7116461" lon="10.7707795"><ele>113.66666666666667</ele><time>2026-04-06T08:52:46.025Z</time></trkpt><trkpt lat="45.71161" lon="10.7706668"><ele>112.0</ele><time>2026-04-06T08:52:47.025Z</time></trkpt><trkpt lat="45.7115891" lon="10.7705533"><ele>112.0</ele><time>2026-04-06T08:52:48.025Z</time></trkpt><trkpt lat="45.7115841" lon="10.7704347"><ele>111.99999999999999</ele><time>2026-04-06T08:52:49.025Z</time></trkpt><trkpt lat="45.7115796" lon="10.770323"><ele>111.99999999999999</ele><time>2026-04-06T08:52:50.025Z</time></trkpt><trkpt lat="45.7115546" lon="10.7702282"><ele>112.0</ele><time>2026-04-06T08:52:51.025Z</time></trkpt><trkpt lat="45.7114165" lon="10.7701056"><ele>112.0</ele><time>2026-04-06T08:52:53.025Z</time></trkpt><trkpt lat="45.7113155" lon="10.770022"><ele>111.5</ele><time>2026-04-06T08:52:54.025Z</time></trkpt><trkpt lat="45.7112115" lon="10.7699134"><ele>111.0</ele><time>2026-04-06T08:52:55.025Z</time></trkpt><trkpt lat="45.7111208" lon="10.7697803"><ele>110.5</ele><time>2026-04-06T08:52:56.025Z</time></trkpt><trkpt lat="45.7110504" lon="10.7696643"><ele>110.0</ele><time>2026-04-06T08:52:57.025Z</time></trkpt><trkpt lat="45.7109958" lon="10.7695647"><ele>110.0</ele><time>2026-04-06T08:52:58.025Z</time></trkpt><trkpt lat="45.7109423" lon="10.7694694"><ele>110.0</ele><time>2026-04-06T08:52:59.025Z</time></trkpt><trkpt lat="45.7108923" lon="10.7693718"><ele>110.0</ele><time>2026-04-06T08:53:00.025Z</time></trkpt><trkpt lat="45.7108383" lon="10.7692689"><ele>110.0</ele><time>2026-04-06T08:53:01.025Z</time></trkpt><trkpt lat="45.7107804" lon="10.7691656"><ele>110.0</ele><time>2026-04-06T08:53:02.025Z</time></trkpt><trkpt lat="45.7107137" lon="10.7690531"><ele>107.49999999999999</ele><time>2026-04-06T08:53:03.025Z</time></trkpt><trkpt lat="45.7106439" lon="10.7689446"><ele>105.0</ele><time>2026-04-06T08:53:04.025Z</time></trkpt><trkpt lat="45.7105786" lon="10.7688465"><ele>102.5</ele><time>2026-04-06T08:53:05.025Z</time></trkpt><trkpt lat="45.7105222" lon="10.7687574"><ele>100.0</ele><time>2026-04-06T08:53:06.025Z</time></trkpt><trkpt lat="45.7104716" lon="10.7686773"><ele>97.5</ele><time>2026-04-06T08:53:07.025Z</time></trkpt><trkpt lat="45.7104185" lon="10.7686024"><ele>95.0</ele><time>2026-04-06T08:53:08.025Z</time></trkpt><trkpt lat="45.710361" lon="10.7685256"><ele>93.33333333333334</ele><time>2026-04-06T08:53:09.026Z</time></trkpt><trkpt lat="45.7103037" lon="10.7684526"><ele>91.66666666666667</ele><time>2026-04-06T08:53:10.025Z</time></trkpt><trkpt lat="45.7102399" lon="10.7683825"><ele>90.0</ele><time>2026-04-06T08:53:11.025Z</time></trkpt><trkpt lat="45.7101683" lon="10.768318"><ele>88.33333333333333</ele><time>2026-04-06T08:53:12.025Z</time></trkpt><trkpt lat="45.7100895" lon="10.7682598"><ele>86.66666666666666</ele><time>2026-04-06T08:53:13.025Z</time></trkpt><trkpt lat="45.7100102" lon="10.7682001"><ele>85.0</ele><time>2026-04-06T08:53:14.025Z</time></trkpt><trkpt lat="45.7099297" lon="10.7681373"><ele>85.0</ele><time>2026-04-06T08:53:15.025Z</time></trkpt><trkpt lat="45.7098447" lon="10.7680811"><ele>85.0</ele><time>2026-04-06T08:53:16.025Z</time></trkpt><trkpt lat="45.7097605" lon="10.768041"><ele>85.0</ele><time>2026-04-06T08:53:17.025Z</time></trkpt><trkpt lat="45.7096779" lon="10.7680127"><ele>85.0</ele><time>2026-04-06T08:53:18.026Z</time></trkpt><trkpt lat="45.709602" lon="10.7679896"><ele>85.0</ele><time>2026-04-06T08:53:19.025Z</time></trkpt><trkpt lat="45.7095312" lon="10.767968"><ele>85.0</ele><time>2026-04-06T08:53:20.026Z</time></trkpt><trkpt lat="45.7094292" lon="10.7679364"><ele>86.4</ele><time>2026-04-06T08:53:22.026Z</time></trkpt><trkpt lat="45.7093737" lon="10.7678819"><ele>87.8</ele><time>2026-04-06T08:53:27.026Z</time></trkpt><trkpt lat="45.709287" lon="10.7677743"><ele>89.19999999999999</ele><time>2026-04-06T08:53:37.026Z</time></trkpt><trkpt lat="45.7092045" lon="10.7677473"><ele>90.6</ele><time>2026-04-06T08:53:38.026Z</time></trkpt><trkpt lat="45.7091092" lon="10.7677231"><ele>92.0</ele><time>2026-04-06T08:53:39.026Z</time></trkpt><trkpt lat="45.7090089" lon="10.767698"><ele>90.0</ele><time>2026-04-06T08:53:40.026Z</time></trkpt><trkpt lat="45.7089043" lon="10.7676724"><ele>88.0</ele><time>2026-04-06T08:53:41.026Z</time></trkpt><trkpt lat="45.7088107" lon="10.7676556"><ele>86.0</ele><time>2026-04-06T08:53:42.026Z</time></trkpt><trkpt lat="45.7087275" lon="10.7676401"><ele>84.0</ele><time>2026-04-06T08:53:43.026Z</time></trkpt><trkpt lat="45.7086462" lon="10.7676198"><ele>82.0</ele><time>2026-04-06T08:53:44.026Z</time></trkpt><trkpt lat="45.7085557" lon="10.7675926"><ele>82.0</ele><time>2026-04-06T08:53:45.026Z</time></trkpt><trkpt lat="45.7084604" lon="10.767562"><ele>82.0</ele><time>2026-04-06T08:53:46.026Z</time></trkpt><trkpt lat="45.7083687" lon="10.7675326"><ele>82.0</ele><time>2026-04-06T08:53:47.026Z</time></trkpt><trkpt lat="45.7082812" lon="10.7675034"><ele>82.0</ele><time>2026-04-06T08:53:48.026Z</time></trkpt><trkpt lat="45.7081915" lon="10.7674697"><ele>82.0</ele><time>2026-04-06T08:53:49.026Z</time></trkpt><trkpt lat="45.7080969" lon="10.7674258"><ele>82.0</ele><time>2026-04-06T08:53:50.026Z</time></trkpt><trkpt lat="45.7079965" lon="10.7673669"><ele>82.0</ele><time>2026-04-06T08:53:51.026Z</time></trkpt><trkpt lat="45.7078913" lon="10.7672951"><ele>82.0</ele><time>2026-04-06T08:53:52.026Z</time></trkpt><trkpt lat="45.7077892" lon="10.7672139"><ele>82.0</ele><time>2026-04-06T08:53:53.027Z</time></trkpt><trkpt lat="45.7076954" lon="10.7671327"><ele>81.19999999999999</ele><time>2026-04-06T08:53:54.026Z</time></trkpt><trkpt lat="45.7076092" lon="10.7670563"><ele>80.39999999999999</ele><time>2026-04-06T08:53:55.027Z</time></trkpt><trkpt lat="45.7075278" lon="10.7669814"><ele>79.6</ele><time>2026-04-06T08:53:56.026Z</time></trkpt><trkpt lat="45.7074459" lon="10.7669047"><ele>78.8</ele><time>2026-04-06T08:53:57.026Z</time></trkpt><trkpt lat="45.707364" lon="10.7668258"><ele>78.0</ele><time>2026-04-06T08:53:58.026Z</time></trkpt><trkpt lat="45.7072809" lon="10.7667377"><ele>78.0</ele><time>2026-04-06T08:53:59.026Z</time></trkpt><trkpt lat="45.7071961" lon="10.7666485"><ele>78.0</ele><time>2026-04-06T08:54:00.026Z</time></trkpt><trkpt lat="45.7071027" lon="10.7665563"><ele>78.0</ele><time>2026-04-06T08:54:01.026Z</time></trkpt><trkpt lat="45.7070063" lon="10.7664657"><ele>78.0</ele><time>2026-04-06T08:54:02.026Z</time></trkpt><trkpt lat="45.7069158" lon="10.7663795"><ele>78.0</ele><time>2026-04-06T08:54:03.026Z</time></trkpt><trkpt lat="45.7068358" lon="10.7663026"><ele>76.83333333333333</ele><time>2026-04-06T08:54:04.027Z</time></trkpt><trkpt lat="45.706766" lon="10.7662303"><ele>75.66666666666667</ele><time>2026-04-06T08:54:05.026Z</time></trkpt><trkpt lat="45.7067056" lon="10.7661673"><ele>74.5</ele><time>2026-04-06T08:54:06.026Z</time></trkpt><trkpt lat="45.7066451" lon="10.7661054"><ele>73.33333333333334</ele><time>2026-04-06T08:54:07.026Z</time></trkpt><trkpt lat="45.7065792" lon="10.7660419"><ele>72.16666666666667</ele><time>2026-04-06T08:54:08.026Z</time></trkpt><trkpt lat="45.7065059" lon="10.7659722"><ele>71.0</ele><time>2026-04-06T08:54:09.026Z</time></trkpt><trkpt lat="45.7064284" lon="10.7658996"><ele>71.0</ele><time>2026-04-06T08:54:10.026Z</time></trkpt><trkpt lat="45.7063477" lon="10.7658223"><ele>71.0</ele><time>2026-04-06T08:54:11.026Z</time></trkpt><trkpt lat="45.7062728" lon="10.7657417"><ele>71.0</ele><time>2026-04-06T08:54:12.026Z</time></trkpt><trkpt lat="45.7062064" lon="10.7656647"><ele>71.0</ele><time>2026-04-06T08:54:13.026Z</time></trkpt><trkpt lat="45.7061472" lon="10.7655884"><ele>71.0</ele><time>2026-04-06T08:54:14.027Z</time></trkpt><trkpt lat="45.7060949" lon="10.7655148"><ele>71.0</ele><time>2026-04-06T08:54:15.026Z</time></trkpt><trkpt lat="45.7060127" lon="10.7653927"><ele>71.39999999999999</ele><time>2026-04-06T08:54:17.026Z</time></trkpt><trkpt lat="45.7059654" lon="10.7653157"><ele>71.8</ele><time>2026-04-06T08:54:18.026Z</time></trkpt><trkpt lat="45.7059101" lon="10.7652212"><ele>72.19999999999999</ele><time>2026-04-06T08:54:19.026Z</time></trkpt><trkpt lat="45.7058446" lon="10.765112"><ele>72.6</ele><time>2026-04-06T08:54:20.026Z</time></trkpt><trkpt lat="45.7057696" lon="10.7649927"><ele>73.0</ele><time>2026-04-06T08:54:21.026Z</time></trkpt><trkpt lat="45.7056852" lon="10.7648595"><ele>73.0</ele><time>2026-04-06T08:54:22.026Z</time></trkpt><trkpt lat="45.7055974" lon="10.7647125"><ele>73.0</ele><time>2026-04-06T08:54:23.027Z</time></trkpt><trkpt lat="45.7055093" lon="10.7645565"><ele>73.0</ele><time>2026-04-06T08:54:24.026Z</time></trkpt><trkpt lat="45.7054174" lon="10.7644043"><ele>73.0</ele><time>2026-04-06T08:54:25.028Z</time></trkpt><trkpt lat="45.7053268" lon="10.7642627"><ele>74.25</ele><time>2026-04-06T08:54:26.027Z</time></trkpt><trkpt lat="45.7052383" lon="10.7641379"><ele>75.5</ele><time>2026-04-06T08:54:27.027Z</time></trkpt><trkpt lat="45.7051493" lon="10.7640279"><ele>76.75</ele><time>2026-04-06T08:54:28.028Z</time></trkpt><trkpt lat="45.7050527" lon="10.763932"><ele>78.0</ele><time>2026-04-06T08:54:29.027Z</time></trkpt><trkpt lat="45.7049432" lon="10.7638445"><ele>78.0</ele><time>2026-04-06T08:54:30.027Z</time></trkpt><trkpt lat="45.7048304" lon="10.7637543"><ele>78.0</ele><time>2026-04-06T08:54:31.027Z</time></trkpt><trkpt lat="45.7047098" lon="10.7636683"><ele>78.0</ele><time>2026-04-06T08:54:32.027Z</time></trkpt><trkpt lat="45.7045805" lon="10.7635929"><ele>78.0</ele><time>2026-04-06T08:54:33.027Z</time></trkpt><trkpt lat="45.7044443" lon="10.7635265"><ele>75.5</ele><time>2026-04-06T08:54:34.027Z</time></trkpt><trkpt lat="45.7043067" lon="10.7634684"><ele>73.0</ele><time>2026-04-06T08:54:35.027Z</time></trkpt><trkpt lat="45.7041777" lon="10.7634185"><ele>70.5</ele><time>2026-04-06T08:54:36.027Z</time></trkpt><trkpt lat="45.7040563" lon="10.7633728"><ele>68.0</ele><time>2026-04-06T08:54:37.027Z</time></trkpt><trkpt lat="45.7039286" lon="10.7633214"><ele>68.0</ele><time>2026-04-06T08:54:38.027Z</time></trkpt><trkpt lat="45.7037933" lon="10.7632632"><ele>68.0</ele><time>2026-04-06T08:54:39.027Z</time></trkpt><trkpt lat="45.7036571" lon="10.7631999"><ele>68.0</ele><time>2026-04-06T08:54:40.027Z</time></trkpt><trkpt lat="45.7035248" lon="10.7631298"><ele>68.0</ele><time>2026-04-06T08:54:41.028Z</time></trkpt><trkpt lat="45.7034014" lon="10.7630534"><ele>70.0</ele><time>2026-04-06T08:54:42.027Z</time></trkpt><trkpt lat="45.7032894" lon="10.7629716"><ele>72.0</ele><time>2026-04-06T08:54:43.027Z</time></trkpt><trkpt lat="45.7031806" lon="10.7628842"><ele>74.0</ele><time>2026-04-06T08:54:44.027Z</time></trkpt><trkpt lat="45.7030689" lon="10.762794"><ele>76.0</ele><time>2026-04-06T08:54:45.027Z</time></trkpt><trkpt lat="45.7029585" lon="10.7627055"><ele>76.25</ele><time>2026-04-06T08:54:46.027Z</time></trkpt><trkpt lat="45.7028498" lon="10.7626202"><ele>76.5</ele><time>2026-04-06T08:54:47.027Z</time></trkpt><trkpt lat="45.702739" lon="10.7625369"><ele>76.75</ele><time>2026-04-06T08:54:48.027Z</time></trkpt><trkpt lat="45.7026284" lon="10.7624546"><ele>77.0</ele><time>2026-04-06T08:54:49.028Z</time></trkpt><trkpt lat="45.7025172" lon="10.7623725"><ele>77.0</ele><time>2026-04-06T08:54:50.027Z</time></trkpt><trkpt lat="45.7024067" lon="10.7622884"><ele>77.0</ele><time>2026-04-06T08:54:51.027Z</time></trkpt><trkpt lat="45.7022977" lon="10.7622055"><ele>77.0</ele><time>2026-04-06T08:54:52.027Z</time></trkpt><trkpt lat="45.7021864" lon="10.7621189"><ele>77.0</ele><time>2026-04-06T08:54:53.027Z</time></trkpt><trkpt lat="45.7020714" lon="10.762029"><ele>77.0</ele><time>2026-04-06T08:54:54.027Z</time></trkpt><trkpt lat="45.7019546" lon="10.7619377"><ele>77.0</ele><time>2026-04-06T08:54:55.027Z</time></trkpt><trkpt lat="45.7018407" lon="10.7618497"><ele>77.0</ele><time>2026-04-06T08:54:56.027Z</time></trkpt><trkpt lat="45.7017276" lon="10.7617611"><ele>77.0</ele><time>2026-04-06T08:54:57.027Z</time></trkpt><trkpt lat="45.7016165" lon="10.7616759"><ele>75.75</ele><time>2026-04-06T08:54:58.028Z</time></trkpt><trkpt lat="45.7015085" lon="10.761591"><ele>74.5</ele><time>2026-04-06T08:54:59.027Z</time></trkpt><trkpt lat="45.7014015" lon="10.761508"><ele>73.25</ele><time>2026-04-06T08:55:00.027Z</time></trkpt><trkpt lat="45.7012931" lon="10.7614251"><ele>72.0</ele><time>2026-04-06T08:55:01.027Z</time></trkpt><trkpt lat="45.7011847" lon="10.7613481"><ele>75.5</ele><time>2026-04-06T08:55:02.028Z</time></trkpt><trkpt lat="45.70108" lon="10.7612799"><ele>79.0</ele><time>2026-04-06T08:55:03.027Z</time></trkpt><trkpt lat="45.7009708" lon="10.7612053"><ele>82.5</ele><time>2026-04-06T08:55:04.027Z</time></trkpt><trkpt lat="45.7008607" lon="10.7611252"><ele>86.0</ele><time>2026-04-06T08:55:05.027Z</time></trkpt><trkpt lat="45.7007545" lon="10.7610441"><ele>82.2</ele><time>2026-04-06T08:55:06.027Z</time></trkpt><trkpt lat="45.7006555" lon="10.7609673"><ele>78.39999999999999</ele><time>2026-04-06T08:55:07.027Z</time></trkpt><trkpt lat="45.7005613" lon="10.7608931"><ele>74.6</ele><time>2026-04-06T08:55:08.027Z</time></trkpt><trkpt lat="45.7004686" lon="10.7608206"><ele>70.8</ele><time>2026-04-06T08:55:09.028Z</time></trkpt><trkpt lat="45.7003738" lon="10.7607397"><ele>67.0</ele><time>2026-04-06T08:55:10.027Z</time></trkpt><trkpt lat="45.7002819" lon="10.7606632"><ele>69.8</ele><time>2026-04-06T08:55:11.028Z</time></trkpt><trkpt lat="45.700199" lon="10.7605912"><ele>72.6</ele><time>2026-04-06T08:55:12.027Z</time></trkpt><trkpt lat="45.7001239" lon="10.7605244"><ele>75.39999999999999</ele><time>2026-04-06T08:55:13.027Z</time></trkpt><trkpt lat="45.700047" lon="10.7604565"><ele>78.2</ele><time>2026-04-06T08:55:14.027Z</time></trkpt><trkpt lat="45.6999673" lon="10.7603882"><ele>81.0</ele><time>2026-04-06T08:55:15.027Z</time></trkpt><trkpt lat="45.6998787" lon="10.7603077"><ele>81.0</ele><time>2026-04-06T08:55:16.027Z</time></trkpt><trkpt lat="45.6997825" lon="10.7602172"><ele>81.0</ele><time>2026-04-06T08:55:17.027Z</time></trkpt><trkpt lat="45.6996843" lon="10.7601269"><ele>81.0</ele><time>2026-04-06T08:55:18.027Z</time></trkpt><trkpt lat="45.6995907" lon="10.7600379"><ele>81.0</ele><time>2026-04-06T08:55:19.027Z</time></trkpt><trkpt lat="45.6995017" lon="10.7599543"><ele>80.39999999999999</ele><time>2026-04-06T08:55:20.027Z</time></trkpt><trkpt lat="45.6994174" lon="10.7598776"><ele>79.8</ele><time>2026-04-06T08:55:21.027Z</time></trkpt><trkpt lat="45.6993374" lon="10.7598062"><ele>79.19999999999999</ele><time>2026-04-06T08:55:22.027Z</time></trkpt><trkpt lat="45.699259" lon="10.7597368"><ele>78.6</ele><time>2026-04-06T08:55:23.027Z</time></trkpt><trkpt lat="45.699183" lon="10.759669"><ele>78.0</ele><time>2026-04-06T08:55:24.027Z</time></trkpt><trkpt lat="45.6991116" lon="10.7596062"><ele>78.0</ele><time>2026-04-06T08:55:25.027Z</time></trkpt><trkpt lat="45.6990466" lon="10.7595503"><ele>78.0</ele><time>2026-04-06T08:55:26.027Z</time></trkpt><trkpt lat="45.6989817" lon="10.7594933"><ele>78.0</ele><time>2026-04-06T08:55:27.027Z</time></trkpt><trkpt lat="45.6989085" lon="10.7594252"><ele>78.0</ele><time>2026-04-06T08:55:28.027Z</time></trkpt><trkpt lat="45.6988295" lon="10.7593527"><ele>78.0</ele><time>2026-04-06T08:55:29.028Z</time></trkpt><trkpt lat="45.6987517" lon="10.7592837"><ele>78.0</ele><time>2026-04-06T08:55:30.028Z</time></trkpt><trkpt lat="45.6986828" lon="10.7592249"><ele>78.33333333333333</ele><time>2026-04-06T08:55:31.028Z</time></trkpt><trkpt lat="45.6986217" lon="10.7591733"><ele>78.66666666666667</ele><time>2026-04-06T08:55:32.028Z</time></trkpt><trkpt lat="45.6985665" lon="10.7591248"><ele>79.0</ele><time>2026-04-06T08:55:33.028Z</time></trkpt><trkpt lat="45.6985003" lon="10.7590628"><ele>79.33333333333334</ele><time>2026-04-06T08:55:34.028Z</time></trkpt><trkpt lat="45.6984224" lon="10.7589913"><ele>79.66666666666667</ele><time>2026-04-06T08:55:35.028Z</time></trkpt><trkpt lat="45.6983315" lon="10.7589093"><ele>80.0</ele><time>2026-04-06T08:55:36.028Z</time></trkpt><trkpt lat="45.6982255" lon="10.7588155"><ele>80.0</ele><time>2026-04-06T08:55:37.028Z</time></trkpt><trkpt lat="45.6981044" lon="10.7587037"><ele>80.0</ele><time>2026-04-06T08:55:38.028Z</time></trkpt><trkpt lat="45.6979782" lon="10.7585871"><ele>80.0</ele><time>2026-04-06T08:55:39.028Z</time></trkpt><trkpt lat="45.6978603" lon="10.7584753"><ele>80.0</ele><time>2026-04-06T08:55:40.028Z</time></trkpt><trkpt lat="45.6977446" lon="10.7583659"><ele>79.5</ele><time>2026-04-06T08:55:41.028Z</time></trkpt><trkpt lat="45.6976277" lon="10.7582602"><ele>79.0</ele><time>2026-04-06T08:55:42.028Z</time></trkpt><trkpt lat="45.697508" lon="10.758155"><ele>78.5</ele><time>2026-04-06T08:55:43.028Z</time></trkpt><trkpt lat="45.697384" lon="10.7580458"><ele>78.0</ele><time>2026-04-06T08:55:44.028Z</time></trkpt><trkpt lat="45.6972574" lon="10.7579382"><ele>78.0</ele><time>2026-04-06T08:55:45.028Z</time></trkpt><trkpt lat="45.6971387" lon="10.757838"><ele>78.0</ele><time>2026-04-06T08:55:46.028Z</time></trkpt><trkpt lat="45.6970153" lon="10.7577229"><ele>78.0</ele><time>2026-04-06T08:55:47.028Z</time></trkpt><trkpt lat="45.6968963" lon="10.7575976"><ele>78.0</ele><time>2026-04-06T08:55:48.028Z</time></trkpt><trkpt lat="45.6967784" lon="10.757458"><ele>77.0</ele><time>2026-04-06T08:55:49.028Z</time></trkpt><trkpt lat="45.696663" lon="10.7573132"><ele>76.0</ele><time>2026-04-06T08:55:50.029Z</time></trkpt><trkpt lat="45.6965521" lon="10.7571693"><ele>75.0</ele><time>2026-04-06T08:55:51.028Z</time></trkpt><trkpt lat="45.6964478" lon="10.7570274"><ele>74.0</ele><time>2026-04-06T08:55:52.028Z</time></trkpt><trkpt lat="45.6963454" lon="10.7568852"><ele>72.66666666666667</ele><time>2026-04-06T08:55:53.028Z</time></trkpt><trkpt lat="45.6962406" lon="10.7567398"><ele>71.33333333333333</ele><time>2026-04-06T08:55:54.028Z</time></trkpt><trkpt lat="45.6961326" lon="10.7565915"><ele>70.0</ele><time>2026-04-06T08:55:55.028Z</time></trkpt><trkpt lat="45.6960181" lon="10.7564425"><ele>70.0</ele><time>2026-04-06T08:55:56.028Z</time></trkpt><trkpt lat="45.6958988" lon="10.7563051"><ele>70.0</ele><time>2026-04-06T08:55:57.028Z</time></trkpt><trkpt lat="45.695778" lon="10.7561868"><ele>70.0</ele><time>2026-04-06T08:55:58.028Z</time></trkpt><trkpt lat="45.6956569" lon="10.756086"><ele>70.0</ele><time>2026-04-06T08:55:59.029Z</time></trkpt><trkpt lat="45.6955388" lon="10.7560067"><ele>70.0</ele><time>2026-04-06T08:56:00.028Z</time></trkpt><trkpt lat="45.6954107" lon="10.7559356"><ele>70.0</ele><time>2026-04-06T08:56:01.028Z</time></trkpt><trkpt lat="45.6952755" lon="10.7558741"><ele>70.0</ele><time>2026-04-06T08:56:02.028Z</time></trkpt><trkpt lat="45.6951365" lon="10.7558145"><ele>70.0</ele><time>2026-04-06T08:56:03.028Z</time></trkpt><trkpt lat="45.6950006" lon="10.7557525"><ele>70.0</ele><time>2026-04-06T08:56:04.028Z</time></trkpt><trkpt lat="45.6948692" lon="10.755689"><ele>70.0</ele><time>2026-04-06T08:56:05.028Z</time></trkpt><trkpt lat="45.6947446" lon="10.7556268"><ele>70.0</ele><time>2026-04-06T08:56:06.028Z</time></trkpt><trkpt lat="45.6946246" lon="10.7555676"><ele>70.0</ele><time>2026-04-06T08:56:07.028Z</time></trkpt><trkpt lat="45.6945038" lon="10.7555108"><ele>72.0</ele><time>2026-04-06T08:56:08.028Z</time></trkpt><trkpt lat="45.6943794" lon="10.7554526"><ele>74.0</ele><time>2026-04-06T08:56:09.028Z</time></trkpt><trkpt lat="45.6942519" lon="10.7553889"><ele>76.0</ele><time>2026-04-06T08:56:10.028Z</time></trkpt><trkpt lat="45.6941264" lon="10.7553196"><ele>78.0</ele><time>2026-04-06T08:56:11.029Z</time></trkpt><trkpt lat="45.6940044" lon="10.7552459"><ele>78.25</ele><time>2026-04-06T08:56:12.028Z</time></trkpt><trkpt lat="45.6938802" lon="10.7551648"><ele>78.5</ele><time>2026-04-06T08:56:13.028Z</time></trkpt><trkpt lat="45.6937507" lon="10.7550721"><ele>78.75</ele><time>2026-04-06T08:56:14.028Z</time></trkpt><trkpt lat="45.6936196" lon="10.7549686"><ele>79.0</ele><time>2026-04-06T08:56:15.028Z</time></trkpt><trkpt lat="45.6934928" lon="10.7548614"><ele>79.0</ele><time>2026-04-06T08:56:16.028Z</time></trkpt><trkpt lat="45.6933729" lon="10.7547564"><ele>79.0</ele><time>2026-04-06T08:56:17.028Z</time></trkpt><trkpt lat="45.6932589" lon="10.7546559"><ele>79.0</ele><time>2026-04-06T08:56:18.029Z</time></trkpt><trkpt lat="45.6931505" lon="10.754565"><ele>79.0</ele><time>2026-04-06T08:56:19.029Z</time></trkpt><trkpt lat="45.6930359" lon="10.7544665"><ele>77.5</ele><time>2026-04-06T08:56:20.028Z</time></trkpt><trkpt lat="45.6929207" lon="10.7543657"><ele>76.0</ele><time>2026-04-06T08:56:21.029Z</time></trkpt><trkpt lat="45.6928068" lon="10.7542667"><ele>74.5</ele><time>2026-04-06T08:56:22.028Z</time></trkpt><trkpt lat="45.6926905" lon="10.7541668"><ele>73.0</ele><time>2026-04-06T08:56:23.029Z</time></trkpt><trkpt lat="45.6925732" lon="10.754069"><ele>73.0</ele><time>2026-04-06T08:56:24.028Z</time></trkpt><trkpt lat="45.6924503" lon="10.7539667"><ele>73.0</ele><time>2026-04-06T08:56:25.028Z</time></trkpt><trkpt lat="45.6923279" lon="10.7538644"><ele>73.0</ele><time>2026-04-06T08:56:26.029Z</time></trkpt><trkpt lat="45.6922087" lon="10.7537651"><ele>73.0</ele><time>2026-04-06T08:56:27.028Z</time></trkpt><trkpt lat="45.6920949" lon="10.7536675"><ele>73.0</ele><time>2026-04-06T08:56:28.028Z</time></trkpt><trkpt lat="45.6919822" lon="10.753572"><ele>73.0</ele><time>2026-04-06T08:56:29.028Z</time></trkpt><trkpt lat="45.6918668" lon="10.7534742"><ele>73.0</ele><time>2026-04-06T08:56:30.028Z</time></trkpt><trkpt lat="45.6917465" lon="10.7533714"><ele>73.0</ele><time>2026-04-06T08:56:31.029Z</time></trkpt><trkpt lat="45.6916278" lon="10.7532652"><ele>73.0</ele><time>2026-04-06T08:56:32.029Z</time></trkpt><trkpt lat="45.6915146" lon="10.7531635"><ele>73.0</ele><time>2026-04-06T08:56:33.029Z</time></trkpt><trkpt lat="45.6914046" lon="10.7530727"><ele>73.0</ele><time>2026-04-06T08:56:34.029Z</time></trkpt><trkpt lat="45.6913024" lon="10.7529928"><ele>73.0</ele><time>2026-04-06T08:56:35.029Z</time></trkpt><trkpt lat="45.6911952" lon="10.752899"><ele>72.25</ele><time>2026-04-06T08:56:36.029Z</time></trkpt><trkpt lat="45.6910885" lon="10.7528047"><ele>71.5</ele><time>2026-04-06T08:56:37.029Z</time></trkpt><trkpt lat="45.6909836" lon="10.752717"><ele>70.75</ele><time>2026-04-06T08:56:38.029Z</time></trkpt><trkpt lat="45.6908743" lon="10.752626"><ele>70.0</ele><time>2026-04-06T08:56:39.029Z</time></trkpt><trkpt lat="45.6907592" lon="10.7525287"><ele>70.0</ele><time>2026-04-06T08:56:40.029Z</time></trkpt><trkpt lat="45.6906402" lon="10.7524282"><ele>70.0</ele><time>2026-04-06T08:56:41.029Z</time></trkpt><trkpt lat="45.6905221" lon="10.7523377"><ele>70.0</ele><time>2026-04-06T08:56:42.029Z</time></trkpt><trkpt lat="45.6904119" lon="10.7522601"><ele>70.0</ele><time>2026-04-06T08:56:43.029Z</time></trkpt><trkpt lat="45.6903051" lon="10.7521822"><ele>72.25</ele><time>2026-04-06T08:56:44.029Z</time></trkpt><trkpt lat="45.6901956" lon="10.752106"><ele>74.5</ele><time>2026-04-06T08:56:45.029Z</time></trkpt><trkpt lat="45.6900807" lon="10.7520252"><ele>76.75</ele><time>2026-04-06T08:56:46.029Z</time></trkpt><trkpt lat="45.689966" lon="10.7519467"><ele>79.0</ele><time>2026-04-06T08:56:47.029Z</time></trkpt><trkpt lat="45.6898598" lon="10.7518786"><ele>77.4</ele><time>2026-04-06T08:56:48.029Z</time></trkpt><trkpt lat="45.689762" lon="10.7518173"><ele>75.80000000000001</ele><time>2026-04-06T08:56:49.03Z</time></trkpt><trkpt lat="45.6896605" lon="10.7517491"><ele>74.19999999999999</ele><time>2026-04-06T08:56:50.029Z</time></trkpt><trkpt lat="45.6895608" lon="10.7516766"><ele>72.6</ele><time>2026-04-06T08:56:51.029Z</time></trkpt><trkpt lat="45.6894581" lon="10.7516021"><ele>71.0</ele><time>2026-04-06T08:56:52.029Z</time></trkpt><trkpt lat="45.6893608" lon="10.751531"><ele>71.0</ele><time>2026-04-06T08:56:53.029Z</time></trkpt><trkpt lat="45.6892704" lon="10.7514701"><ele>71.0</ele><time>2026-04-06T08:56:54.03Z</time></trkpt><trkpt lat="45.6891724" lon="10.7514113"><ele>71.0</ele><time>2026-04-06T08:56:55.029Z</time></trkpt><trkpt lat="45.6890699" lon="10.7513538"><ele>71.0</ele><time>2026-04-06T08:56:56.029Z</time></trkpt><trkpt lat="45.6889692" lon="10.751303"><ele>71.0</ele><time>2026-04-06T08:56:57.03Z</time></trkpt><trkpt lat="45.6888717" lon="10.7512483"><ele>71.0</ele><time>2026-04-06T08:56:58.029Z</time></trkpt><trkpt lat="45.6887764" lon="10.751195"><ele>71.0</ele><time>2026-04-06T08:56:59.029Z</time></trkpt><trkpt lat="45.6886772" lon="10.7511377"><ele>71.0</ele><time>2026-04-06T08:57:00.029Z</time></trkpt><trkpt lat="45.6885704" lon="10.7510752"><ele>71.0</ele><time>2026-04-06T08:57:01.029Z</time></trkpt><trkpt lat="45.68846" lon="10.7510099"><ele>71.0</ele><time>2026-04-06T08:57:02.029Z</time></trkpt><trkpt lat="45.6883599" lon="10.7509485"><ele>70.83333333333334</ele><time>2026-04-06T08:57:03.029Z</time></trkpt><trkpt lat="45.688281" lon="10.7509008"><ele>70.66666666666667</ele><time>2026-04-06T08:57:04.029Z</time></trkpt><trkpt lat="45.6882091" lon="10.7508552"><ele>70.5</ele><time>2026-04-06T08:57:05.029Z</time></trkpt><trkpt lat="45.688135" lon="10.7508029"><ele>70.33333333333333</ele><time>2026-04-06T08:57:06.029Z</time></trkpt><trkpt lat="45.688061" lon="10.750753"><ele>70.16666666666666</ele><time>2026-04-06T08:57:07.029Z</time></trkpt><trkpt lat="45.6879873" lon="10.7507033"><ele>70.0</ele><time>2026-04-06T08:57:08.029Z</time></trkpt><trkpt lat="45.6879129" lon="10.7506544"><ele>70.0</ele><time>2026-04-06T08:57:09.029Z</time></trkpt><trkpt lat="45.68784" lon="10.7506122"><ele>70.0</ele><time>2026-04-06T08:57:10.029Z</time></trkpt><trkpt lat="45.6877717" lon="10.7505764"><ele>70.0</ele><time>2026-04-06T08:57:11.029Z</time></trkpt><trkpt lat="45.6877112" lon="10.7505423"><ele>70.0</ele><time>2026-04-06T08:57:12.029Z</time></trkpt><trkpt lat="45.6875918" lon="10.7504663"><ele>70.0</ele><time>2026-04-06T08:57:14.029Z</time></trkpt><trkpt lat="45.6875164" lon="10.7504141"><ele>70.0</ele><time>2026-04-06T08:57:15.029Z</time></trkpt><trkpt lat="45.6874402" lon="10.7503477"><ele>69.6</ele><time>2026-04-06T08:57:16.029Z</time></trkpt><trkpt lat="45.6873723" lon="10.7502867"><ele>69.2</ele><time>2026-04-06T08:57:17.029Z</time></trkpt><trkpt lat="45.6872813" lon="10.7501744"><ele>68.8</ele><time>2026-04-06T08:57:19.029Z</time></trkpt><trkpt lat="45.6871969" lon="10.7500771"><ele>68.4</ele><time>2026-04-06T08:57:21.029Z</time></trkpt><trkpt lat="45.6870988" lon="10.7499965"><ele>68.0</ele><time>2026-04-06T08:57:23.029Z</time></trkpt><trkpt lat="45.6869877" lon="10.7499204"><ele>69.6</ele><time>2026-04-06T08:57:25.029Z</time></trkpt><trkpt lat="45.6868762" lon="10.7498277"><ele>71.19999999999999</ele><time>2026-04-06T08:57:27.029Z</time></trkpt><trkpt lat="45.6868166" lon="10.7497688"><ele>72.8</ele><time>2026-04-06T08:57:28.029Z</time></trkpt><trkpt lat="45.686748" lon="10.7496962"><ele>74.39999999999999</ele><time>2026-04-06T08:57:29.029Z</time></trkpt><trkpt lat="45.6866694" lon="10.7496079"><ele>76.0</ele><time>2026-04-06T08:57:30.029Z</time></trkpt><trkpt lat="45.6865969" lon="10.7495028"><ele>73.75</ele><time>2026-04-06T08:57:31.029Z</time></trkpt><trkpt lat="45.6864445" lon="10.7493608"><ele>71.5</ele><time>2026-04-06T08:57:33.029Z</time></trkpt><trkpt lat="45.6863636" lon="10.7493042"><ele>69.25</ele><time>2026-04-06T08:57:34.029Z</time></trkpt><trkpt lat="45.6862813" lon="10.7492456"><ele>67.0</ele><time>2026-04-06T08:57:35.031Z</time></trkpt><trkpt lat="45.6862023" lon="10.74919"><ele>67.0</ele><time>2026-04-06T08:57:36.03Z</time></trkpt><trkpt lat="45.6861173" lon="10.7491372"><ele>67.0</ele><time>2026-04-06T08:57:37.03Z</time></trkpt><trkpt lat="45.6860246" lon="10.7490897"><ele>67.0</ele><time>2026-04-06T08:57:38.03Z</time></trkpt><trkpt lat="45.6859272" lon="10.7490421"><ele>67.0</ele><time>2026-04-06T08:57:39.03Z</time></trkpt><trkpt lat="45.6858205" lon="10.7489829"><ele>67.0</ele><time>2026-04-06T08:57:40.03Z</time></trkpt><trkpt lat="45.6857063" lon="10.7489176"><ele>68.0</ele><time>2026-04-06T08:57:41.03Z</time></trkpt><trkpt lat="45.6855976" lon="10.7488536"><ele>69.0</ele><time>2026-04-06T08:57:42.03Z</time></trkpt><trkpt lat="45.6854965" lon="10.7487938"><ele>70.0</ele><time>2026-04-06T08:57:43.03Z</time></trkpt><trkpt lat="45.6853947" lon="10.7487386"><ele>71.0</ele><time>2026-04-06T08:57:44.03Z</time></trkpt><trkpt lat="45.6852892" lon="10.7486786"><ele>72.0</ele><time>2026-04-06T08:57:45.03Z</time></trkpt><trkpt lat="45.6851701" lon="10.7486091"><ele>71.25</ele><time>2026-04-06T08:57:46.03Z</time></trkpt><trkpt lat="45.6850456" lon="10.7485326"><ele>70.5</ele><time>2026-04-06T08:57:47.03Z</time></trkpt><trkpt lat="45.6849272" lon="10.748457"><ele>69.75</ele><time>2026-04-06T08:57:48.03Z</time></trkpt><trkpt lat="45.6848124" lon="10.7483817"><ele>69.0</ele><time>2026-04-06T08:57:49.03Z</time></trkpt><trkpt lat="45.684701" lon="10.7483063"><ele>69.0</ele><time>2026-04-06T08:57:50.03Z</time></trkpt><trkpt lat="45.6845954" lon="10.7482285"><ele>69.0</ele><time>2026-04-06T08:57:51.03Z</time></trkpt><trkpt lat="45.6844962" lon="10.7481445"><ele>69.0</ele><time>2026-04-06T08:57:52.03Z</time></trkpt><trkpt lat="45.6844047" lon="10.7480629"><ele>69.0</ele><time>2026-04-06T08:57:53.03Z</time></trkpt><trkpt lat="45.6843204" lon="10.7479816"><ele>69.0</ele><time>2026-04-06T08:57:54.03Z</time></trkpt><trkpt lat="45.6842428" lon="10.7479044"><ele>68.75</ele><time>2026-04-06T08:57:55.03Z</time></trkpt><trkpt lat="45.6841615" lon="10.7478209"><ele>68.5</ele><time>2026-04-06T08:57:56.03Z</time></trkpt><trkpt lat="45.6840695" lon="10.7477248"><ele>68.25</ele><time>2026-04-06T08:57:57.03Z</time></trkpt><trkpt lat="45.6839668" lon="10.7476201"><ele>68.0</ele><time>2026-04-06T08:57:58.03Z</time></trkpt><trkpt lat="45.6838577" lon="10.7475079"><ele>68.0</ele><time>2026-04-06T08:57:59.03Z</time></trkpt><trkpt lat="45.6837437" lon="10.7473947"><ele>68.0</ele><time>2026-04-06T08:58:00.03Z</time></trkpt><trkpt lat="45.6836275" lon="10.7472799"><ele>68.0</ele><time>2026-04-06T08:58:01.03Z</time></trkpt><trkpt lat="45.6835143" lon="10.7471668"><ele>68.0</ele><time>2026-04-06T08:58:02.031Z</time></trkpt><trkpt lat="45.6834114" lon="10.7470661"><ele>68.8</ele><time>2026-04-06T08:58:03.031Z</time></trkpt><trkpt lat="45.6833192" lon="10.7469808"><ele>69.6</ele><time>2026-04-06T08:58:04.03Z</time></trkpt><trkpt lat="45.6832343" lon="10.7468938"><ele>70.4</ele><time>2026-04-06T08:58:05.03Z</time></trkpt><trkpt lat="45.6831514" lon="10.7468081"><ele>71.2</ele><time>2026-04-06T08:58:06.03Z</time></trkpt><trkpt lat="45.6830632" lon="10.7467157"><ele>72.0</ele><time>2026-04-06T08:58:07.03Z</time></trkpt><trkpt lat="45.6829667" lon="10.7466214"><ele>72.0</ele><time>2026-04-06T08:58:08.03Z</time></trkpt><trkpt lat="45.6828695" lon="10.7465269"><ele>72.0</ele><time>2026-04-06T08:58:09.03Z</time></trkpt><trkpt lat="45.6827773" lon="10.7464367"><ele>72.0</ele><time>2026-04-06T08:58:10.03Z</time></trkpt><trkpt lat="45.6826873" lon="10.746348"><ele>72.0</ele><time>2026-04-06T08:58:11.03Z</time></trkpt><trkpt lat="45.6825986" lon="10.7462591"><ele>72.0</ele><time>2026-04-06T08:58:12.03Z</time></trkpt><trkpt lat="45.6825081" lon="10.7461677"><ele>72.25</ele><time>2026-04-06T08:58:13.03Z</time></trkpt><trkpt lat="45.6824139" lon="10.7460748"><ele>72.5</ele><time>2026-04-06T08:58:14.031Z</time></trkpt><trkpt lat="45.682316" lon="10.7459805"><ele>72.75</ele><time>2026-04-06T08:58:15.03Z</time></trkpt><trkpt lat="45.6822167" lon="10.7458837"><ele>73.0</ele><time>2026-04-06T08:58:16.03Z</time></trkpt><trkpt lat="45.6821202" lon="10.7457904"><ele>73.0</ele><time>2026-04-06T08:58:17.03Z</time></trkpt><trkpt lat="45.6820251" lon="10.7456979"><ele>73.0</ele><time>2026-04-06T08:58:18.03Z</time></trkpt><trkpt lat="45.6819243" lon="10.745603"><ele>73.0</ele><time>2026-04-06T08:58:19.03Z</time></trkpt><trkpt lat="45.6818171" lon="10.7455013"><ele>73.0</ele><time>2026-04-06T08:58:20.031Z</time></trkpt><trkpt lat="45.681713" lon="10.7454016"><ele>72.5</ele><time>2026-04-06T08:58:21.03Z</time></trkpt><trkpt lat="45.6816169" lon="10.745307"><ele>72.0</ele><time>2026-04-06T08:58:22.03Z</time></trkpt><trkpt lat="45.6815224" lon="10.7452129"><ele>71.5</ele><time>2026-04-06T08:58:23.03Z</time></trkpt><trkpt lat="45.681428" lon="10.7451194"><ele>71.0</ele><time>2026-04-06T08:58:24.031Z</time></trkpt><trkpt lat="45.681334" lon="10.7450322"><ele>71.0</ele><time>2026-04-06T08:58:25.03Z</time></trkpt><trkpt lat="45.681237" lon="10.7449372"><ele>71.0</ele><time>2026-04-06T08:58:26.03Z</time></trkpt><trkpt lat="45.6811438" lon="10.7448459"><ele>71.0</ele><time>2026-04-06T08:58:27.03Z</time></trkpt><trkpt lat="45.6810516" lon="10.7447554"><ele>71.0</ele><time>2026-04-06T08:58:28.031Z</time></trkpt><trkpt lat="45.6809604" lon="10.7446651"><ele>70.39999999999999</ele><time>2026-04-06T08:58:29.03Z</time></trkpt><trkpt lat="45.6808696" lon="10.7445726"><ele>69.8</ele><time>2026-04-06T08:58:30.03Z</time></trkpt><trkpt lat="45.6807786" lon="10.7444806"><ele>69.19999999999999</ele><time>2026-04-06T08:58:31.03Z</time></trkpt><trkpt lat="45.6806875" lon="10.7443905"><ele>68.6</ele><time>2026-04-06T08:58:32.03Z</time></trkpt><trkpt lat="45.6805965" lon="10.7442959"><ele>68.0</ele><time>2026-04-06T08:58:33.031Z</time></trkpt><trkpt lat="45.6805065" lon="10.7441911"><ele>68.0</ele><time>2026-04-06T08:58:34.03Z</time></trkpt><trkpt lat="45.6804193" lon="10.7440778"><ele>68.0</ele><time>2026-04-06T08:58:35.03Z</time></trkpt><trkpt lat="45.6803381" lon="10.7439674"><ele>68.0</ele><time>2026-04-06T08:58:36.03Z</time></trkpt><trkpt lat="45.6802635" lon="10.7438603"><ele>68.0</ele><time>2026-04-06T08:58:37.03Z</time></trkpt><trkpt lat="45.6801943" lon="10.7437432"><ele>68.0</ele><time>2026-04-06T08:58:38.031Z</time></trkpt><trkpt lat="45.6801223" lon="10.7436103"><ele>69.0</ele><time>2026-04-06T08:58:39.03Z</time></trkpt><trkpt lat="45.6800485" lon="10.743464"><ele>70.0</ele><time>2026-04-06T08:58:40.031Z</time></trkpt><trkpt lat="45.6799733" lon="10.7433138"><ele>71.0</ele><time>2026-04-06T08:58:41.031Z</time></trkpt><trkpt lat="45.6798975" lon="10.7431693"><ele>72.0</ele><time>2026-04-06T08:58:42.031Z</time></trkpt><trkpt lat="45.6798215" lon="10.7430291"><ele>72.0</ele><time>2026-04-06T08:58:43.031Z</time></trkpt><trkpt lat="45.679744" lon="10.7428869"><ele>72.0</ele><time>2026-04-06T08:58:44.031Z</time></trkpt><trkpt lat="45.6796635" lon="10.7427387"><ele>72.0</ele><time>2026-04-06T08:58:45.032Z</time></trkpt><trkpt lat="45.6795772" lon="10.7425821"><ele>72.0</ele><time>2026-04-06T08:58:46.031Z</time></trkpt><trkpt lat="45.6794869" lon="10.7424191"><ele>72.75</ele><time>2026-04-06T08:58:47.031Z</time></trkpt><trkpt lat="45.6793953" lon="10.7422531"><ele>73.5</ele><time>2026-04-06T08:58:48.031Z</time></trkpt><trkpt lat="45.6793032" lon="10.7420876"><ele>74.25</ele><time>2026-04-06T08:58:49.031Z</time></trkpt><trkpt lat="45.6792116" lon="10.7419267"><ele>75.0</ele><time>2026-04-06T08:58:50.031Z</time></trkpt><trkpt lat="45.6791166" lon="10.7417739"><ele>73.25</ele><time>2026-04-06T08:58:51.032Z</time></trkpt><trkpt lat="45.6790144" lon="10.7416231"><ele>71.5</ele><time>2026-04-06T08:58:52.031Z</time></trkpt><trkpt lat="45.6789047" lon="10.7414747"><ele>69.75</ele><time>2026-04-06T08:58:53.031Z</time></trkpt><trkpt lat="45.6787931" lon="10.7413308"><ele>68.0</ele><time>2026-04-06T08:58:54.031Z</time></trkpt><trkpt lat="45.6786773" lon="10.7411969"><ele>67.75</ele><time>2026-04-06T08:58:55.031Z</time></trkpt><trkpt lat="45.678555" lon="10.7410731"><ele>67.5</ele><time>2026-04-06T08:58:56.031Z</time></trkpt><trkpt lat="45.6784327" lon="10.7409579"><ele>67.25</ele><time>2026-04-06T08:58:57.031Z</time></trkpt><trkpt lat="45.6783146" lon="10.7408518"><ele>67.0</ele><time>2026-04-06T08:58:58.031Z</time></trkpt><trkpt lat="45.678197" lon="10.7407542"><ele>67.0</ele><time>2026-04-06T08:58:59.032Z</time></trkpt><trkpt lat="45.678078" lon="10.7406648"><ele>67.0</ele><time>2026-04-06T08:59:00.032Z</time></trkpt><trkpt lat="45.6779588" lon="10.7405823"><ele>67.0</ele><time>2026-04-06T08:59:01.031Z</time></trkpt><trkpt lat="45.6778367" lon="10.7405054"><ele>67.0</ele><time>2026-04-06T08:59:02.031Z</time></trkpt><trkpt lat="45.6777064" lon="10.740426"><ele>67.0</ele><time>2026-04-06T08:59:03.031Z</time></trkpt><trkpt lat="45.6775701" lon="10.7403481"><ele>67.0</ele><time>2026-04-06T08:59:04.031Z</time></trkpt><trkpt lat="45.6774416" lon="10.7402745"><ele>67.0</ele><time>2026-04-06T08:59:05.031Z</time></trkpt><trkpt lat="45.6773418" lon="10.7402191"><ele>67.0</ele><time>2026-04-06T08:59:06.031Z</time></trkpt><trkpt lat="45.677262" lon="10.7401708"><ele>67.0</ele><time>2026-04-06T08:59:07.032Z</time></trkpt><trkpt lat="45.6771857" lon="10.7401239"><ele>67.0</ele><time>2026-04-06T08:59:08.031Z</time></trkpt><trkpt lat="45.6770986" lon="10.7400706"><ele>67.0</ele><time>2026-04-06T08:59:09.031Z</time></trkpt><trkpt lat="45.6769842" lon="10.7399993"><ele>67.0</ele><time>2026-04-06T08:59:10.031Z</time></trkpt><trkpt lat="45.6768547" lon="10.7399114"><ele>67.0</ele><time>2026-04-06T08:59:11.031Z</time></trkpt><trkpt lat="45.6767291" lon="10.739826"><ele>68.75</ele><time>2026-04-06T08:59:12.031Z</time></trkpt><trkpt lat="45.6766124" lon="10.7397503"><ele>70.5</ele><time>2026-04-06T08:59:13.031Z</time></trkpt><trkpt lat="45.6765019" lon="10.7396812"><ele>72.25</ele><time>2026-04-06T08:59:14.031Z</time></trkpt><trkpt lat="45.6763909" lon="10.7396113"><ele>74.0</ele><time>2026-04-06T08:59:15.031Z</time></trkpt><trkpt lat="45.6762807" lon="10.7395397"><ele>74.0</ele><time>2026-04-06T08:59:16.031Z</time></trkpt><trkpt lat="45.6761826" lon="10.7394747"><ele>74.0</ele><time>2026-04-06T08:59:17.031Z</time></trkpt><trkpt lat="45.6760971" lon="10.7394193"><ele>74.0</ele><time>2026-04-06T08:59:18.031Z</time></trkpt><trkpt lat="45.6760005" lon="10.7393593"><ele>74.0</ele><time>2026-04-06T08:59:19.031Z</time></trkpt><trkpt lat="45.6758933" lon="10.7392889"><ele>74.0</ele><time>2026-04-06T08:59:20.031Z</time></trkpt><trkpt lat="45.6757783" lon="10.7392134"><ele>72.60000000000001</ele><time>2026-04-06T08:59:21.031Z</time></trkpt><trkpt lat="45.6756706" lon="10.7391415"><ele>71.2</ele><time>2026-04-06T08:59:22.031Z</time></trkpt><trkpt lat="45.6755723" lon="10.7390742"><ele>69.80000000000001</ele><time>2026-04-06T08:59:23.031Z</time></trkpt><trkpt lat="45.6754753" lon="10.7390103"><ele>68.4</ele><time>2026-04-06T08:59:24.031Z</time></trkpt><trkpt lat="45.6753779" lon="10.738941"><ele>67.0</ele><time>2026-04-06T08:59:25.031Z</time></trkpt><trkpt lat="45.6752766" lon="10.7388695"><ele>67.0</ele><time>2026-04-06T08:59:26.031Z</time></trkpt><trkpt lat="45.6751644" lon="10.7387933"><ele>67.0</ele><time>2026-04-06T08:59:27.032Z</time></trkpt><trkpt lat="45.6750435" lon="10.7387145"><ele>67.0</ele><time>2026-04-06T08:59:28.031Z</time></trkpt><trkpt lat="45.674915" lon="10.7386339"><ele>67.0</ele><time>2026-04-06T08:59:29.031Z</time></trkpt><trkpt lat="45.674781" lon="10.7385457"><ele>67.0</ele><time>2026-04-06T08:59:30.031Z</time></trkpt><trkpt lat="45.6746426" lon="10.7384564"><ele>67.0</ele><time>2026-04-06T08:59:31.031Z</time></trkpt><trkpt lat="45.6745021" lon="10.7383729"><ele>67.0</ele><time>2026-04-06T08:59:32.031Z</time></trkpt><trkpt lat="45.6743707" lon="10.7382961"><ele>67.0</ele><time>2026-04-06T08:59:33.031Z</time></trkpt><trkpt lat="45.6742532" lon="10.7382209"><ele>69.2</ele><time>2026-04-06T08:59:34.031Z</time></trkpt><trkpt lat="45.6741472" lon="10.7381468"><ele>71.4</ele><time>2026-04-06T08:59:35.031Z</time></trkpt><trkpt lat="45.6740464" lon="10.7380743"><ele>73.6</ele><time>2026-04-06T08:59:36.032Z</time></trkpt><trkpt lat="45.6739477" lon="10.738005"><ele>75.8</ele><time>2026-04-06T08:59:37.031Z</time></trkpt><trkpt lat="45.6738541" lon="10.7379359"><ele>78.0</ele><time>2026-04-06T08:59:38.031Z</time></trkpt><trkpt lat="45.6737697" lon="10.7378664"><ele>78.0</ele><time>2026-04-06T08:59:39.031Z</time></trkpt><trkpt lat="45.6736919" lon="10.7377972"><ele>78.0</ele><time>2026-04-06T08:59:40.031Z</time></trkpt><trkpt lat="45.6736157" lon="10.7377247"><ele>78.0</ele><time>2026-04-06T08:59:41.031Z</time></trkpt><trkpt lat="45.6735408" lon="10.7376512"><ele>78.0</ele><time>2026-04-06T08:59:42.032Z</time></trkpt><trkpt lat="45.6734695" lon="10.7375791"><ele>78.0</ele><time>2026-04-06T08:59:43.033Z</time></trkpt><trkpt lat="45.673405" lon="10.7375188"><ele>78.0</ele><time>2026-04-06T08:59:44.032Z</time></trkpt><trkpt lat="45.6733405" lon="10.7374599"><ele>76.66666666666667</ele><time>2026-04-06T08:59:45.032Z</time></trkpt><trkpt lat="45.673285" lon="10.7374081"><ele>75.33333333333333</ele><time>2026-04-06T08:59:46.032Z</time></trkpt><trkpt lat="45.6731836" lon="10.7373056"><ele>74.0</ele><time>2026-04-06T08:59:48.032Z</time></trkpt><trkpt lat="45.6731285" lon="10.7372501"><ele>72.66666666666666</ele><time>2026-04-06T08:59:49.032Z</time></trkpt><trkpt lat="45.6730729" lon="10.7371926"><ele>71.33333333333333</ele><time>2026-04-06T08:59:50.032Z</time></trkpt><trkpt lat="45.6730201" lon="10.7371349"><ele>70.0</ele><time>2026-04-06T08:59:51.032Z</time></trkpt><trkpt lat="45.6729695" lon="10.7370766"><ele>70.0</ele><time>2026-04-06T08:59:52.032Z</time></trkpt><trkpt lat="45.672881" lon="10.7369802"><ele>70.0</ele><time>2026-04-06T08:59:54.032Z</time></trkpt><trkpt lat="45.6728044" lon="10.736911"><ele>70.0</ele><time>2026-04-06T08:59:56.033Z</time></trkpt><trkpt lat="45.6727451" lon="10.7368658"><ele>70.0</ele><time>2026-04-06T08:59:58.032Z</time></trkpt><trkpt lat="45.6726815" lon="10.7367946"><ele>70.0</ele><time>2026-04-06T09:00:01.032Z</time></trkpt><trkpt lat="45.6726098" lon="10.7367268"><ele>70.0</ele><time>2026-04-06T09:00:14.032Z</time></trkpt><trkpt lat="45.6725206" lon="10.7366337"><ele>71.0</ele><time>2026-04-06T09:00:15.032Z</time></trkpt><trkpt lat="45.6724264" lon="10.7365447"><ele>72.0</ele><time>2026-04-06T09:00:16.033Z</time></trkpt><trkpt lat="45.6723197" lon="10.7364366"><ele>73.0</ele><time>2026-04-06T09:00:17.032Z</time></trkpt><trkpt lat="45.6722175" lon="10.7363332"><ele>74.0</ele><time>2026-04-06T09:00:18.033Z</time></trkpt><trkpt lat="45.6721246" lon="10.7362456"><ele>74.0</ele><time>2026-04-06T09:00:19.033Z</time></trkpt><trkpt lat="45.6720348" lon="10.7361653"><ele>74.0</ele><time>2026-04-06T09:00:20.032Z</time></trkpt><trkpt lat="45.6719414" lon="10.7360806"><ele>74.0</ele><time>2026-04-06T09:00:21.032Z</time></trkpt><trkpt lat="45.6718406" lon="10.7359882"><ele>74.0</ele><time>2026-04-06T09:00:22.033Z</time></trkpt><trkpt lat="45.6717357" lon="10.7358926"><ele>74.0</ele><time>2026-04-06T09:00:23.032Z</time></trkpt><trkpt lat="45.6716299" lon="10.7357961"><ele>74.0</ele><time>2026-04-06T09:00:24.032Z</time></trkpt><trkpt lat="45.6715275" lon="10.7356988"><ele>74.0</ele><time>2026-04-06T09:00:25.032Z</time></trkpt><trkpt lat="45.6714236" lon="10.7355978"><ele>74.0</ele><time>2026-04-06T09:00:26.032Z</time></trkpt><trkpt lat="45.6713172" lon="10.7354952"><ele>74.0</ele><time>2026-04-06T09:00:27.032Z</time></trkpt><trkpt lat="45.6712068" lon="10.7353898"><ele>74.0</ele><time>2026-04-06T09:00:28.032Z</time></trkpt><trkpt lat="45.6710933" lon="10.7352816"><ele>74.0</ele><time>2026-04-06T09:00:29.032Z</time></trkpt><trkpt lat="45.6709777" lon="10.7351708"><ele>74.0</ele><time>2026-04-06T09:00:30.032Z</time></trkpt><trkpt lat="45.670864" lon="10.7350634"><ele>74.5</ele><time>2026-04-06T09:00:31.032Z</time></trkpt><trkpt lat="45.6707476" lon="10.7349544"><ele>75.0</ele><time>2026-04-06T09:00:32.032Z</time></trkpt><trkpt lat="45.6706284" lon="10.7348443"><ele>75.5</ele><time>2026-04-06T09:00:33.032Z</time></trkpt><trkpt lat="45.6705072" lon="10.7347299"><ele>76.0</ele><time>2026-04-06T09:00:34.032Z</time></trkpt><trkpt lat="45.6703857" lon="10.7346081"><ele>75.25</ele><time>2026-04-06T09:00:35.032Z</time></trkpt><trkpt lat="45.6702646" lon="10.7344901"><ele>74.5</ele><time>2026-04-06T09:00:36.032Z</time></trkpt><trkpt lat="45.6701438" lon="10.7343736"><ele>73.75</ele><time>2026-04-06T09:00:37.032Z</time></trkpt><trkpt lat="45.670022" lon="10.7342615"><ele>73.0</ele><time>2026-04-06T09:00:38.032Z</time></trkpt><trkpt lat="45.6698965" lon="10.7341434"><ele>73.0</ele><time>2026-04-06T09:00:39.032Z</time></trkpt><trkpt lat="45.6697724" lon="10.7340213"><ele>73.0</ele><time>2026-04-06T09:00:40.032Z</time></trkpt><trkpt lat="45.6696476" lon="10.7339013"><ele>73.0</ele><time>2026-04-06T09:00:41.033Z</time></trkpt><trkpt lat="45.6695204" lon="10.7337808"><ele>71.5</ele><time>2026-04-06T09:00:42.032Z</time></trkpt><trkpt lat="45.6693947" lon="10.7336692"><ele>70.0</ele><time>2026-04-06T09:00:43.032Z</time></trkpt><trkpt lat="45.6692682" lon="10.7335559"><ele>68.5</ele><time>2026-04-06T09:00:44.032Z</time></trkpt><trkpt lat="45.669147" lon="10.7334446"><ele>67.0</ele><time>2026-04-06T09:00:45.032Z</time></trkpt><trkpt lat="45.6690324" lon="10.7333353"><ele>67.0</ele><time>2026-04-06T09:00:46.033Z</time></trkpt><trkpt lat="45.668928" lon="10.7332286"><ele>67.0</ele><time>2026-04-06T09:00:47.033Z</time></trkpt><trkpt lat="45.6688281" lon="10.7331251"><ele>67.0</ele><time>2026-04-06T09:00:48.034Z</time></trkpt><trkpt lat="45.6687247" lon="10.7330215"><ele>67.0</ele><time>2026-04-06T09:00:49.033Z</time></trkpt><trkpt lat="45.6686129" lon="10.7329114"><ele>67.25</ele><time>2026-04-06T09:00:50.033Z</time></trkpt><trkpt lat="45.6684953" lon="10.7328009"><ele>67.5</ele><time>2026-04-06T09:00:51.033Z</time></trkpt><trkpt lat="45.6683722" lon="10.7326821"><ele>67.75</ele><time>2026-04-06T09:00:52.033Z</time></trkpt><trkpt lat="45.6682486" lon="10.7325645"><ele>68.0</ele><time>2026-04-06T09:00:53.033Z</time></trkpt><trkpt lat="45.6681221" lon="10.7324561"><ele>68.0</ele><time>2026-04-06T09:00:54.033Z</time></trkpt><trkpt lat="45.6679843" lon="10.7323535"><ele>68.0</ele><time>2026-04-06T09:00:55.033Z</time></trkpt><trkpt lat="45.6678325" lon="10.7322517"><ele>68.0</ele><time>2026-04-06T09:00:56.033Z</time></trkpt><trkpt lat="45.667671" lon="10.7321506"><ele>67.33333333333334</ele><time>2026-04-06T09:00:57.033Z</time></trkpt><trkpt lat="45.6675092" lon="10.7320537"><ele>66.66666666666667</ele><time>2026-04-06T09:00:58.033Z</time></trkpt><trkpt lat="45.6673485" lon="10.7319518"><ele>66.0</ele><time>2026-04-06T09:00:59.033Z</time></trkpt><trkpt lat="45.667186" lon="10.7318486"><ele>66.0</ele><time>2026-04-06T09:01:00.033Z</time></trkpt><trkpt lat="45.6670181" lon="10.7317428"><ele>66.0</ele><time>2026-04-06T09:01:01.033Z</time></trkpt><trkpt lat="45.6668515" lon="10.731636"><ele>66.0</ele><time>2026-04-06T09:01:02.033Z</time></trkpt><trkpt lat="45.6666869" lon="10.731527"><ele>69.0</ele><time>2026-04-06T09:01:03.033Z</time></trkpt><trkpt lat="45.6665228" lon="10.7314183"><ele>72.0</ele><time>2026-04-06T09:01:04.033Z</time></trkpt><trkpt lat="45.666362" lon="10.7313083"><ele>75.0</ele><time>2026-04-06T09:01:05.033Z</time></trkpt><trkpt lat="45.6662026" lon="10.7311961"><ele>74.33333333333333</ele><time>2026-04-06T09:01:06.033Z</time></trkpt><trkpt lat="45.6660429" lon="10.7310761"><ele>73.66666666666666</ele><time>2026-04-06T09:01:07.033Z</time></trkpt><trkpt lat="45.6658832" lon="10.7309427"><ele>73.0</ele><time>2026-04-06T09:01:08.033Z</time></trkpt><trkpt lat="45.6657279" lon="10.7308069"><ele>73.0</ele><time>2026-04-06T09:01:09.033Z</time></trkpt><trkpt lat="45.6655729" lon="10.7306687"><ele>73.0</ele><time>2026-04-06T09:01:10.033Z</time></trkpt><trkpt lat="45.6654159" lon="10.7305284"><ele>73.0</ele><time>2026-04-06T09:01:11.033Z</time></trkpt><trkpt lat="45.6652576" lon="10.7303913"><ele>71.66666666666666</ele><time>2026-04-06T09:01:12.033Z</time></trkpt><trkpt lat="45.6651023" lon="10.7302527"><ele>70.33333333333333</ele><time>2026-04-06T09:01:13.033Z</time></trkpt><trkpt lat="45.6649514" lon="10.7301161"><ele>69.0</ele><time>2026-04-06T09:01:14.033Z</time></trkpt><trkpt lat="45.664801" lon="10.7299826"><ele>69.0</ele><time>2026-04-06T09:01:15.033Z</time></trkpt><trkpt lat="45.6646479" lon="10.7298466"><ele>69.0</ele><time>2026-04-06T09:01:16.033Z</time></trkpt><trkpt lat="45.6644936" lon="10.7297114"><ele>69.0</ele><time>2026-04-06T09:01:17.034Z</time></trkpt><trkpt lat="45.6643354" lon="10.7295811"><ele>68.33333333333333</ele><time>2026-04-06T09:01:18.033Z</time></trkpt><trkpt lat="45.6641817" lon="10.7294535"><ele>67.66666666666666</ele><time>2026-04-06T09:01:19.034Z</time></trkpt><trkpt lat="45.6640296" lon="10.7293168"><ele>67.0</ele><time>2026-04-06T09:01:20.034Z</time></trkpt><trkpt lat="45.6638741" lon="10.7291783"><ele>67.0</ele><time>2026-04-06T09:01:21.033Z</time></trkpt><trkpt lat="45.6637189" lon="10.7290417"><ele>67.0</ele><time>2026-04-06T09:01:22.033Z</time></trkpt><trkpt lat="45.6635639" lon="10.7289016"><ele>67.0</ele><time>2026-04-06T09:01:23.033Z</time></trkpt><trkpt lat="45.6634098" lon="10.7287599"><ele>66.33333333333333</ele><time>2026-04-06T09:01:24.033Z</time></trkpt><trkpt lat="45.6632559" lon="10.7286225"><ele>65.66666666666667</ele><time>2026-04-06T09:01:25.033Z</time></trkpt><trkpt lat="45.6631055" lon="10.7284925"><ele>65.0</ele><time>2026-04-06T09:01:26.033Z</time></trkpt><trkpt lat="45.6629549" lon="10.7283683"><ele>65.0</ele><time>2026-04-06T09:01:27.033Z</time></trkpt><trkpt lat="45.6628015" lon="10.7282445"><ele>65.0</ele><time>2026-04-06T09:01:28.033Z</time></trkpt><trkpt lat="45.6626454" lon="10.7281348"><ele>65.0</ele><time>2026-04-06T09:01:29.033Z</time></trkpt><trkpt lat="45.6624853" lon="10.7280347"><ele>70.0</ele><time>2026-04-06T09:01:30.033Z</time></trkpt><trkpt lat="45.6623207" lon="10.7279412"><ele>75.0</ele><time>2026-04-06T09:01:31.033Z</time></trkpt><trkpt lat="45.6621609" lon="10.7278516"><ele>80.0</ele><time>2026-04-06T09:01:32.033Z</time></trkpt><trkpt lat="45.6620097" lon="10.7277682"><ele>76.33333333333334</ele><time>2026-04-06T09:01:33.033Z</time></trkpt><trkpt lat="45.6618605" lon="10.7276866"><ele>72.66666666666667</ele><time>2026-04-06T09:01:34.033Z</time></trkpt><trkpt lat="45.661711" lon="10.7275926"><ele>69.0</ele><time>2026-04-06T09:01:35.033Z</time></trkpt><trkpt lat="45.6615688" lon="10.7274653"><ele>69.0</ele><time>2026-04-06T09:01:36.033Z</time></trkpt><trkpt lat="45.6614362" lon="10.7273061"><ele>69.0</ele><time>2026-04-06T09:01:37.033Z</time></trkpt><trkpt lat="45.6613184" lon="10.7271219"><ele>69.0</ele><time>2026-04-06T09:01:38.033Z</time></trkpt><trkpt lat="45.6612131" lon="10.7269431"><ele>70.5</ele><time>2026-04-06T09:01:39.033Z</time></trkpt><trkpt lat="45.6611133" lon="10.7267975"><ele>72.0</ele><time>2026-04-06T09:01:40.033Z</time></trkpt><trkpt lat="45.6609994" lon="10.7266876"><ele>73.5</ele><time>2026-04-06T09:01:41.033Z</time></trkpt><trkpt lat="45.6608587" lon="10.7265732"><ele>75.0</ele><time>2026-04-06T09:01:42.033Z</time></trkpt><trkpt lat="45.6606975" lon="10.7264769"><ele>75.0</ele><time>2026-04-06T09:01:43.033Z</time></trkpt><trkpt lat="45.6605246" lon="10.726387"><ele>75.0</ele><time>2026-04-06T09:01:44.033Z</time></trkpt><trkpt lat="45.6603513" lon="10.7262917"><ele>75.0</ele><time>2026-04-06T09:01:45.034Z</time></trkpt><trkpt lat="45.660173" lon="10.7261973"><ele>72.66666666666667</ele><time>2026-04-06T09:01:46.033Z</time></trkpt><trkpt lat="45.6599943" lon="10.7261054"><ele>70.33333333333334</ele><time>2026-04-06T09:01:47.033Z</time></trkpt><trkpt lat="45.6598182" lon="10.7260142"><ele>68.0</ele><time>2026-04-06T09:01:48.034Z</time></trkpt><trkpt lat="45.6596427" lon="10.7259206"><ele>68.0</ele><time>2026-04-06T09:01:49.034Z</time></trkpt><trkpt lat="45.6594735" lon="10.7258288"><ele>68.0</ele><time>2026-04-06T09:01:50.034Z</time></trkpt><trkpt lat="45.6593089" lon="10.7257395"><ele>68.0</ele><time>2026-04-06T09:01:51.034Z</time></trkpt><trkpt lat="45.6591495" lon="10.7256505"><ele>70.33333333333334</ele><time>2026-04-06T09:01:52.035Z</time></trkpt><trkpt lat="45.6589873" lon="10.7255557"><ele>72.66666666666667</ele><time>2026-04-06T09:01:53.035Z</time></trkpt><trkpt lat="45.6588276" lon="10.7254648"><ele>75.0</ele><time>2026-04-06T09:01:54.034Z</time></trkpt><trkpt lat="45.6586807" lon="10.7253726"><ele>72.75</ele><time>2026-04-06T09:01:55.035Z</time></trkpt><trkpt lat="45.6585519" lon="10.7252814"><ele>70.5</ele><time>2026-04-06T09:01:56.034Z</time></trkpt><trkpt lat="45.6584433" lon="10.7251948"><ele>68.25</ele><time>2026-04-06T09:01:57.034Z</time></trkpt><trkpt lat="45.6583477" lon="10.7251111"><ele>66.0</ele><time>2026-04-06T09:01:58.034Z</time></trkpt><trkpt lat="45.6582643" lon="10.7250312"><ele>66.0</ele><time>2026-04-06T09:01:59.034Z</time></trkpt><trkpt lat="45.6581927" lon="10.7249495"><ele>66.0</ele><time>2026-04-06T09:02:00.034Z</time></trkpt><trkpt lat="45.6581238" lon="10.7248632"><ele>66.0</ele><time>2026-04-06T09:02:01.034Z</time></trkpt><trkpt lat="45.6580503" lon="10.7247738"><ele>66.0</ele><time>2026-04-06T09:02:02.034Z</time></trkpt><trkpt lat="45.6579639" lon="10.7246775"><ele>66.0</ele><time>2026-04-06T09:02:03.034Z</time></trkpt><trkpt lat="45.6578685" lon="10.7245733"><ele>66.0</ele><time>2026-04-06T09:02:04.034Z</time></trkpt><trkpt lat="45.657767" lon="10.7244608"><ele>66.0</ele><time>2026-04-06T09:02:05.034Z</time></trkpt><trkpt lat="45.6576617" lon="10.7243398"><ele>66.0</ele><time>2026-04-06T09:02:06.034Z</time></trkpt><trkpt lat="45.6575594" lon="10.7242175"><ele>66.0</ele><time>2026-04-06T09:02:07.034Z</time></trkpt><trkpt lat="45.6574537" lon="10.7240998"><ele>66.0</ele><time>2026-04-06T09:02:08.034Z</time></trkpt><trkpt lat="45.6573403" lon="10.72399"><ele>66.0</ele><time>2026-04-06T09:02:09.034Z</time></trkpt><trkpt lat="45.6572171" lon="10.7238839"><ele>66.0</ele><time>2026-04-06T09:02:10.034Z</time></trkpt><trkpt lat="45.6570835" lon="10.7237769"><ele>66.0</ele><time>2026-04-06T09:02:11.034Z</time></trkpt><trkpt lat="45.6569425" lon="10.7236667"><ele>65.33333333333333</ele><time>2026-04-06T09:02:12.035Z</time></trkpt><trkpt lat="45.6567942" lon="10.7235592"><ele>64.66666666666666</ele><time>2026-04-06T09:02:13.034Z</time></trkpt><trkpt lat="45.6566415" lon="10.7234596"><ele>64.0</ele><time>2026-04-06T09:02:14.034Z</time></trkpt><trkpt lat="45.6564932" lon="10.7233734"><ele>64.0</ele><time>2026-04-06T09:02:15.034Z</time></trkpt><trkpt lat="45.6563468" lon="10.7232947"><ele>64.0</ele><time>2026-04-06T09:02:16.034Z</time></trkpt><trkpt lat="45.6562021" lon="10.7232184"><ele>64.0</ele><time>2026-04-06T09:02:17.034Z</time></trkpt><trkpt lat="45.6560622" lon="10.7231406"><ele>65.25</ele><time>2026-04-06T09:02:18.035Z</time></trkpt><trkpt lat="45.6559228" lon="10.7230664"><ele>66.5</ele><time>2026-04-06T09:02:19.034Z</time></trkpt><trkpt lat="45.6557797" lon="10.7229898"><ele>67.75</ele><time>2026-04-06T09:02:20.034Z</time></trkpt><trkpt lat="45.6556437" lon="10.7229196"><ele>69.0</ele><time>2026-04-06T09:02:21.034Z</time></trkpt><trkpt lat="45.6555213" lon="10.7228633"><ele>69.0</ele><time>2026-04-06T09:02:22.034Z</time></trkpt><trkpt lat="45.655395" lon="10.7228125"><ele>69.0</ele><time>2026-04-06T09:02:23.034Z</time></trkpt><trkpt lat="45.6552717" lon="10.7227688"><ele>69.0</ele><time>2026-04-06T09:02:24.035Z</time></trkpt><trkpt lat="45.6551418" lon="10.7227287"><ele>69.0</ele><time>2026-04-06T09:02:25.034Z</time></trkpt><trkpt lat="45.655026" lon="10.7226975"><ele>68.60000000000001</ele><time>2026-04-06T09:02:26.034Z</time></trkpt><trkpt lat="45.6549123" lon="10.7226748"><ele>68.2</ele><time>2026-04-06T09:02:27.034Z</time></trkpt><trkpt lat="45.6548045" lon="10.7226464"><ele>67.80000000000001</ele><time>2026-04-06T09:02:28.034Z</time></trkpt><trkpt lat="45.6547014" lon="10.7226143"><ele>67.4</ele><time>2026-04-06T09:02:29.034Z</time></trkpt><trkpt lat="45.6546046" lon="10.7225897"><ele>67.0</ele><time>2026-04-06T09:02:30.034Z</time></trkpt><trkpt lat="45.6545058" lon="10.722576"><ele>67.83333333333333</ele><time>2026-04-06T09:02:31.034Z</time></trkpt><trkpt lat="45.6544233" lon="10.7225449"><ele>68.66666666666666</ele><time>2026-04-06T09:02:32.034Z</time></trkpt><trkpt lat="45.6543448" lon="10.7225222"><ele>69.5</ele><time>2026-04-06T09:02:33.034Z</time></trkpt><trkpt lat="45.65426" lon="10.7225073"><ele>70.33333333333333</ele><time>2026-04-06T09:02:34.034Z</time></trkpt><trkpt lat="45.654175" lon="10.7224969"><ele>71.16666666666667</ele><time>2026-04-06T09:02:35.034Z</time></trkpt><trkpt lat="45.654089" lon="10.7224821"><ele>72.0</ele><time>2026-04-06T09:02:36.034Z</time></trkpt><trkpt lat="45.6539982" lon="10.7224634"><ele>72.0</ele><time>2026-04-06T09:02:37.034Z</time></trkpt><trkpt lat="45.6539075" lon="10.722437"><ele>72.0</ele><time>2026-04-06T09:02:38.034Z</time></trkpt><trkpt lat="45.6538202" lon="10.7224142"><ele>72.0</ele><time>2026-04-06T09:02:39.034Z</time></trkpt><trkpt lat="45.6537326" lon="10.7223932"><ele>72.0</ele><time>2026-04-06T09:02:40.034Z</time></trkpt><trkpt lat="45.6536442" lon="10.7223638"><ele>72.0</ele><time>2026-04-06T09:02:41.034Z</time></trkpt><trkpt lat="45.65356" lon="10.7223282"><ele>72.0</ele><time>2026-04-06T09:02:42.035Z</time></trkpt><trkpt lat="45.6534745" lon="10.7222865"><ele>72.4</ele><time>2026-04-06T09:02:43.034Z</time></trkpt><trkpt lat="45.6533916" lon="10.7222391"><ele>72.80000000000001</ele><time>2026-04-06T09:02:44.034Z</time></trkpt><trkpt lat="45.6533017" lon="10.7221786"><ele>73.2</ele><time>2026-04-06T09:02:45.034Z</time></trkpt><trkpt lat="45.6532105" lon="10.7221173"><ele>73.60000000000001</ele><time>2026-04-06T09:02:46.035Z</time></trkpt><trkpt lat="45.6531159" lon="10.7220531"><ele>74.0</ele><time>2026-04-06T09:02:47.034Z</time></trkpt><trkpt lat="45.6530168" lon="10.7219854"><ele>74.0</ele><time>2026-04-06T09:02:48.034Z</time></trkpt><trkpt lat="45.6529121" lon="10.7219128"><ele>74.0</ele><time>2026-04-06T09:02:49.034Z</time></trkpt><trkpt lat="45.652803" lon="10.7218368"><ele>74.0</ele><time>2026-04-06T09:02:50.034Z</time></trkpt><trkpt lat="45.6526895" lon="10.721761"><ele>74.0</ele><time>2026-04-06T09:02:51.035Z</time></trkpt><trkpt lat="45.6525665" lon="10.7216924"><ele>72.5</ele><time>2026-04-06T09:02:52.035Z</time></trkpt><trkpt lat="45.6524394" lon="10.7216268"><ele>71.0</ele><time>2026-04-06T09:02:53.035Z</time></trkpt><trkpt lat="45.6523104" lon="10.7215627"><ele>69.5</ele><time>2026-04-06T09:02:54.035Z</time></trkpt><trkpt lat="45.6521833" lon="10.7215044"><ele>68.0</ele><time>2026-04-06T09:02:55.036Z</time></trkpt><trkpt lat="45.6520567" lon="10.7214472"><ele>70.25</ele><time>2026-04-06T09:02:56.035Z</time></trkpt><trkpt lat="45.6519291" lon="10.7213855"><ele>72.5</ele><time>2026-04-06T09:02:57.035Z</time></trkpt><trkpt lat="45.6518008" lon="10.7213262"><ele>74.75</ele><time>2026-04-06T09:02:58.035Z</time></trkpt><trkpt lat="45.6516719" lon="10.7212636"><ele>77.0</ele><time>2026-04-06T09:02:59.035Z</time></trkpt><trkpt lat="45.6515456" lon="10.721192"><ele>77.0</ele><time>2026-04-06T09:03:00.035Z</time></trkpt><trkpt lat="45.6514198" lon="10.7211117"><ele>77.0</ele><time>2026-04-06T09:03:01.035Z</time></trkpt><trkpt lat="45.6512961" lon="10.7210259"><ele>77.0</ele><time>2026-04-06T09:03:02.035Z</time></trkpt><trkpt lat="45.6511701" lon="10.7209421"><ele>77.0</ele><time>2026-04-06T09:03:03.035Z</time></trkpt><trkpt lat="45.6510435" lon="10.7208587"><ele>76.25</ele><time>2026-04-06T09:03:04.035Z</time></trkpt><trkpt lat="45.6509159" lon="10.7207729"><ele>75.5</ele><time>2026-04-06T09:03:05.035Z</time></trkpt><trkpt lat="45.6507887" lon="10.7206809"><ele>74.75</ele><time>2026-04-06T09:03:06.035Z</time></trkpt><trkpt lat="45.650665" lon="10.7205785"><ele>74.0</ele><time>2026-04-06T09:03:07.035Z</time></trkpt><trkpt lat="45.6505474" lon="10.7204663"><ele>74.0</ele><time>2026-04-06T09:03:08.035Z</time></trkpt><trkpt lat="45.6504333" lon="10.7203479"><ele>74.0</ele><time>2026-04-06T09:03:09.035Z</time></trkpt><trkpt lat="45.6503248" lon="10.7202278"><ele>74.0</ele><time>2026-04-06T09:03:10.035Z</time></trkpt><trkpt lat="45.6502221" lon="10.7201051"><ele>74.0</ele><time>2026-04-06T09:03:11.035Z</time></trkpt><trkpt lat="45.6501234" lon="10.7199909"><ele>73.5</ele><time>2026-04-06T09:03:12.035Z</time></trkpt><trkpt lat="45.6500296" lon="10.7198839"><ele>73.0</ele><time>2026-04-06T09:03:13.035Z</time></trkpt><trkpt lat="45.6499339" lon="10.7197842"><ele>72.5</ele><time>2026-04-06T09:03:14.035Z</time></trkpt><trkpt lat="45.6498372" lon="10.7196817"><ele>72.0</ele><time>2026-04-06T09:03:15.035Z</time></trkpt><trkpt lat="45.6497386" lon="10.719576"><ele>72.0</ele><time>2026-04-06T09:03:16.036Z</time></trkpt><trkpt lat="45.6496408" lon="10.7194642"><ele>72.0</ele><time>2026-04-06T09:03:17.035Z</time></trkpt><trkpt lat="45.6495422" lon="10.719351"><ele>72.0</ele><time>2026-04-06T09:03:18.035Z</time></trkpt><trkpt lat="45.6494441" lon="10.7192422"><ele>72.0</ele><time>2026-04-06T09:03:19.035Z</time></trkpt><trkpt lat="45.6493461" lon="10.71914"><ele>72.4</ele><time>2026-04-06T09:03:20.035Z</time></trkpt><trkpt lat="45.6492511" lon="10.7190422"><ele>72.80000000000001</ele><time>2026-04-06T09:03:21.035Z</time></trkpt><trkpt lat="45.6491611" lon="10.7189491"><ele>73.2</ele><time>2026-04-06T09:03:22.035Z</time></trkpt><trkpt lat="45.6490751" lon="10.7188562"><ele>73.60000000000001</ele><time>2026-04-06T09:03:23.035Z</time></trkpt><trkpt lat="45.648993" lon="10.7187661"><ele>74.0</ele><time>2026-04-06T09:03:24.035Z</time></trkpt><trkpt lat="45.6489184" lon="10.7186764"><ele>74.0</ele><time>2026-04-06T09:03:25.035Z</time></trkpt><trkpt lat="45.6488495" lon="10.7185876"><ele>74.0</ele><time>2026-04-06T09:03:26.035Z</time></trkpt><trkpt lat="45.6487807" lon="10.7184935"><ele>74.0</ele><time>2026-04-06T09:03:27.035Z</time></trkpt><trkpt lat="45.6487093" lon="10.7183871"><ele>74.0</ele><time>2026-04-06T09:03:28.035Z</time></trkpt><trkpt lat="45.6486366" lon="10.7182705"><ele>74.0</ele><time>2026-04-06T09:03:29.035Z</time></trkpt><trkpt lat="45.6485666" lon="10.7181517"><ele>74.8</ele><time>2026-04-06T09:03:30.036Z</time></trkpt><trkpt lat="45.6485059" lon="10.7180322"><ele>75.60000000000001</ele><time>2026-04-06T09:03:31.035Z</time></trkpt><trkpt lat="45.6484536" lon="10.7179174"><ele>76.4</ele><time>2026-04-06T09:03:32.036Z</time></trkpt><trkpt lat="45.6484037" lon="10.7177979"><ele>77.2</ele><time>2026-04-06T09:03:33.035Z</time></trkpt><trkpt lat="45.6483543" lon="10.7176743"><ele>78.0</ele><time>2026-04-06T09:03:34.035Z</time></trkpt><trkpt lat="45.6483045" lon="10.7175471"><ele>76.2</ele><time>2026-04-06T09:03:35.035Z</time></trkpt><trkpt lat="45.6482537" lon="10.7174156"><ele>74.4</ele><time>2026-04-06T09:03:36.035Z</time></trkpt><trkpt lat="45.6482015" lon="10.7172802"><ele>72.60000000000001</ele><time>2026-04-06T09:03:37.035Z</time></trkpt><trkpt lat="45.648147" lon="10.717141"><ele>70.8</ele><time>2026-04-06T09:03:38.035Z</time></trkpt><trkpt lat="45.648089" lon="10.7169966"><ele>69.0</ele><time>2026-04-06T09:03:39.035Z</time></trkpt><trkpt lat="45.6480275" lon="10.7168481"><ele>68.25</ele><time>2026-04-06T09:03:40.035Z</time></trkpt><trkpt lat="45.6479651" lon="10.7166968"><ele>67.5</ele><time>2026-04-06T09:03:41.035Z</time></trkpt><trkpt lat="45.6479025" lon="10.7165384"><ele>66.75</ele><time>2026-04-06T09:03:42.035Z</time></trkpt><trkpt lat="45.6478379" lon="10.716376"><ele>66.0</ele><time>2026-04-06T09:03:43.035Z</time></trkpt><trkpt lat="45.6477638" lon="10.7162127"><ele>67.25</ele><time>2026-04-06T09:03:44.035Z</time></trkpt><trkpt lat="45.6476784" lon="10.7160487"><ele>68.5</ele><time>2026-04-06T09:03:45.035Z</time></trkpt><trkpt lat="45.6475812" lon="10.7158867"><ele>69.75</ele><time>2026-04-06T09:03:46.035Z</time></trkpt><trkpt lat="45.647474" lon="10.7157472"><ele>71.0</ele><time>2026-04-06T09:03:47.035Z</time></trkpt><trkpt lat="45.6473551" lon="10.7156228"><ele>71.0</ele><time>2026-04-06T09:03:48.035Z</time></trkpt><trkpt lat="45.6472266" lon="10.7155156"><ele>71.0</ele><time>2026-04-06T09:03:49.035Z</time></trkpt><trkpt lat="45.6470806" lon="10.715424"><ele>71.0</ele><time>2026-04-06T09:03:50.035Z</time></trkpt><trkpt lat="45.6469276" lon="10.7153286"><ele>72.66666666666667</ele><time>2026-04-06T09:03:51.035Z</time></trkpt><trkpt lat="45.6467754" lon="10.715242"><ele>74.33333333333333</ele><time>2026-04-06T09:03:52.036Z</time></trkpt><trkpt lat="45.6466291" lon="10.7151596"><ele>76.0</ele><time>2026-04-06T09:03:53.035Z</time></trkpt><trkpt lat="45.6464875" lon="10.7150829"><ele>74.75</ele><time>2026-04-06T09:03:54.036Z</time></trkpt><trkpt lat="45.6463586" lon="10.7150149"><ele>73.5</ele><time>2026-04-06T09:03:55.037Z</time></trkpt><trkpt lat="45.6462372" lon="10.7149454"><ele>72.25</ele><time>2026-04-06T09:03:56.036Z</time></trkpt><trkpt lat="45.6461247" lon="10.7148749"><ele>71.0</ele><time>2026-04-06T09:03:57.036Z</time></trkpt><trkpt lat="45.6460175" lon="10.7148079"><ele>71.0</ele><time>2026-04-06T09:03:58.036Z</time></trkpt><trkpt lat="45.6459125" lon="10.7147445"><ele>71.0</ele><time>2026-04-06T09:03:59.036Z</time></trkpt><trkpt lat="45.6458067" lon="10.7146839"><ele>71.0</ele><time>2026-04-06T09:04:00.036Z</time></trkpt><trkpt lat="45.6456996" lon="10.7146217"><ele>71.0</ele><time>2026-04-06T09:04:01.036Z</time></trkpt><trkpt lat="45.6455963" lon="10.7145531"><ele>71.0</ele><time>2026-04-06T09:04:02.036Z</time></trkpt><trkpt lat="45.645493" lon="10.7144769"><ele>71.0</ele><time>2026-04-06T09:04:03.036Z</time></trkpt><trkpt lat="45.6453912" lon="10.7143864"><ele>71.0</ele><time>2026-04-06T09:04:04.036Z</time></trkpt><trkpt lat="45.645286" lon="10.714287"><ele>71.0</ele><time>2026-04-06T09:04:05.036Z</time></trkpt><trkpt lat="45.6451787" lon="10.714178"><ele>71.5</ele><time>2026-04-06T09:04:06.036Z</time></trkpt><trkpt lat="45.6450662" lon="10.7140673"><ele>72.0</ele><time>2026-04-06T09:04:07.036Z</time></trkpt><trkpt lat="45.6449475" lon="10.713959"><ele>72.5</ele><time>2026-04-06T09:04:08.036Z</time></trkpt><trkpt lat="45.644832" lon="10.7138457"><ele>73.0</ele><time>2026-04-06T09:04:09.036Z</time></trkpt><trkpt lat="45.6447246" lon="10.7137358"><ele>73.0</ele><time>2026-04-06T09:04:10.036Z</time></trkpt><trkpt lat="45.6446209" lon="10.7136368"><ele>73.0</ele><time>2026-04-06T09:04:11.036Z</time></trkpt><trkpt lat="45.6445187" lon="10.7135404"><ele>73.0</ele><time>2026-04-06T09:04:12.036Z</time></trkpt><trkpt lat="45.6444206" lon="10.7134472"><ele>73.0</ele><time>2026-04-06T09:04:13.036Z</time></trkpt><trkpt lat="45.6443256" lon="10.7133543"><ele>74.0</ele><time>2026-04-06T09:04:14.036Z</time></trkpt><trkpt lat="45.6442408" lon="10.7132608"><ele>75.0</ele><time>2026-04-06T09:04:15.036Z</time></trkpt><trkpt lat="45.6441655" lon="10.7131604"><ele>76.0</ele><time>2026-04-06T09:04:16.036Z</time></trkpt><trkpt lat="45.644105" lon="10.7130596"><ele>77.0</ele><time>2026-04-06T09:04:17.036Z</time></trkpt><trkpt lat="45.6440505" lon="10.7129562"><ele>78.0</ele><time>2026-04-06T09:04:18.036Z</time></trkpt><trkpt lat="45.6440047" lon="10.7128546"><ele>78.0</ele><time>2026-04-06T09:04:19.036Z</time></trkpt><trkpt lat="45.643969" lon="10.7127585"><ele>78.0</ele><time>2026-04-06T09:04:20.036Z</time></trkpt><trkpt lat="45.6439389" lon="10.71267"><ele>78.0</ele><time>2026-04-06T09:04:21.036Z</time></trkpt><trkpt lat="45.6439072" lon="10.7125754"><ele>78.0</ele><time>2026-04-06T09:04:22.036Z</time></trkpt><trkpt lat="45.6438692" lon="10.7124664"><ele>78.0</ele><time>2026-04-06T09:04:23.036Z</time></trkpt><trkpt lat="45.6438257" lon="10.7123521"><ele>78.0</ele><time>2026-04-06T09:04:24.036Z</time></trkpt><trkpt lat="45.6437749" lon="10.7122373"><ele>78.8</ele><time>2026-04-06T09:04:25.036Z</time></trkpt><trkpt lat="45.643717" lon="10.7121255"><ele>79.6</ele><time>2026-04-06T09:04:26.036Z</time></trkpt><trkpt lat="45.6436539" lon="10.7120086"><ele>80.39999999999999</ele><time>2026-04-06T09:04:27.036Z</time></trkpt><trkpt lat="45.643584" lon="10.7118962"><ele>81.19999999999999</ele><time>2026-04-06T09:04:28.036Z</time></trkpt><trkpt lat="45.6435109" lon="10.7117809"><ele>82.0</ele><time>2026-04-06T09:04:29.036Z</time></trkpt><trkpt lat="45.6434356" lon="10.7116576"><ele>82.0</ele><time>2026-04-06T09:04:30.036Z</time></trkpt><trkpt lat="45.64336" lon="10.7115344"><ele>82.0</ele><time>2026-04-06T09:04:31.036Z</time></trkpt><trkpt lat="45.6432839" lon="10.7114087"><ele>82.0</ele><time>2026-04-06T09:04:32.036Z</time></trkpt><trkpt lat="45.6432067" lon="10.7112789"><ele>82.0</ele><time>2026-04-06T09:04:33.036Z</time></trkpt><trkpt lat="45.6431263" lon="10.711144"><ele>78.6</ele><time>2026-04-06T09:04:34.036Z</time></trkpt><trkpt lat="45.6430434" lon="10.7110053"><ele>75.19999999999999</ele><time>2026-04-06T09:04:35.036Z</time></trkpt><trkpt lat="45.6429661" lon="10.7108769"><ele>71.8</ele><time>2026-04-06T09:04:36.036Z</time></trkpt><trkpt lat="45.6429031" lon="10.7107769"><ele>68.4</ele><time>2026-04-06T09:04:37.036Z</time></trkpt><trkpt lat="45.6428533" lon="10.710705"><ele>65.0</ele><time>2026-04-06T09:04:38.037Z</time></trkpt><trkpt lat="45.6427996" lon="10.7106402"><ele>67.83333333333334</ele><time>2026-04-06T09:04:39.036Z</time></trkpt><trkpt lat="45.6427422" lon="10.7105768"><ele>70.66666666666667</ele><time>2026-04-06T09:04:40.036Z</time></trkpt><trkpt lat="45.6426817" lon="10.7105145"><ele>73.5</ele><time>2026-04-06T09:04:41.036Z</time></trkpt><trkpt lat="45.6426183" lon="10.7104497"><ele>76.33333333333333</ele><time>2026-04-06T09:04:42.036Z</time></trkpt><trkpt lat="45.6425481" lon="10.7103844"><ele>79.16666666666666</ele><time>2026-04-06T09:04:43.036Z</time></trkpt><trkpt lat="45.6424672" lon="10.7103187"><ele>82.0</ele><time>2026-04-06T09:04:44.036Z</time></trkpt><trkpt lat="45.6423796" lon="10.7102476"><ele>79.0</ele><time>2026-04-06T09:04:45.036Z</time></trkpt><trkpt lat="45.6422916" lon="10.7101689"><ele>76.0</ele><time>2026-04-06T09:04:46.036Z</time></trkpt><trkpt lat="45.6422079" lon="10.7100877"><ele>73.0</ele><time>2026-04-06T09:04:47.036Z</time></trkpt><trkpt lat="45.6421302" lon="10.7099972"><ele>70.0</ele><time>2026-04-06T09:04:48.036Z</time></trkpt><trkpt lat="45.6420563" lon="10.7099002"><ele>67.0</ele><time>2026-04-06T09:04:49.036Z</time></trkpt><trkpt lat="45.6419833" lon="10.7097992"><ele>69.25</ele><time>2026-04-06T09:04:50.036Z</time></trkpt><trkpt lat="45.6419189" lon="10.7096751"><ele>71.5</ele><time>2026-04-06T09:04:51.036Z</time></trkpt><trkpt lat="45.6418552" lon="10.7095351"><ele>73.75</ele><time>2026-04-06T09:04:52.036Z</time></trkpt><trkpt lat="45.6417956" lon="10.7093669"><ele>76.0</ele><time>2026-04-06T09:04:53.036Z</time></trkpt><trkpt lat="45.6417357" lon="10.7091777"><ele>76.0</ele><time>2026-04-06T09:04:54.036Z</time></trkpt><trkpt lat="45.6416733" lon="10.7089794"><ele>76.0</ele><time>2026-04-06T09:04:55.036Z</time></trkpt><trkpt lat="45.6415969" lon="10.7087884"><ele>76.0</ele><time>2026-04-06T09:04:56.036Z</time></trkpt><trkpt lat="45.6415053" lon="10.7086096"><ele>73.0</ele><time>2026-04-06T09:04:57.036Z</time></trkpt><trkpt lat="45.6413956" lon="10.7084572"><ele>70.0</ele><time>2026-04-06T09:04:58.037Z</time></trkpt><trkpt lat="45.6412793" lon="10.7083223"><ele>67.0</ele><time>2026-04-06T09:04:59.038Z</time></trkpt><trkpt lat="45.6411557" lon="10.7081991"><ele>72.33333333333333</ele><time>2026-04-06T09:05:00.037Z</time></trkpt><trkpt lat="45.6410131" lon="10.7080934"><ele>77.66666666666667</ele><time>2026-04-06T09:05:01.037Z</time></trkpt><trkpt lat="45.6408656" lon="10.7080105"><ele>83.0</ele><time>2026-04-06T09:05:02.037Z</time></trkpt><trkpt lat="45.6407235" lon="10.7079341"><ele>83.0</ele><time>2026-04-06T09:05:03.037Z</time></trkpt><trkpt lat="45.6405801" lon="10.7078571"><ele>83.0</ele><time>2026-04-06T09:05:04.038Z</time></trkpt><trkpt lat="45.6404324" lon="10.7077829"><ele>83.0</ele><time>2026-04-06T09:05:05.037Z</time></trkpt><trkpt lat="45.6402938" lon="10.7077037"><ele>80.5</ele><time>2026-04-06T09:05:06.037Z</time></trkpt><trkpt lat="45.6401679" lon="10.707634"><ele>78.0</ele><time>2026-04-06T09:05:07.037Z</time></trkpt><trkpt lat="45.6400448" lon="10.7075655"><ele>75.5</ele><time>2026-04-06T09:05:08.037Z</time></trkpt><trkpt lat="45.6399209" lon="10.7074866"><ele>73.0</ele><time>2026-04-06T09:05:09.037Z</time></trkpt><trkpt lat="45.639792" lon="10.7073943"><ele>73.0</ele><time>2026-04-06T09:05:10.037Z</time></trkpt><trkpt lat="45.6396599" lon="10.7072924"><ele>73.0</ele><time>2026-04-06T09:05:11.038Z</time></trkpt><trkpt lat="45.6395378" lon="10.7072048"><ele>73.0</ele><time>2026-04-06T09:05:12.037Z</time></trkpt><trkpt lat="45.6394191" lon="10.7071256"><ele>73.0</ele><time>2026-04-06T09:05:13.037Z</time></trkpt><trkpt lat="45.6393022" lon="10.7070455"><ele>71.0</ele><time>2026-04-06T09:05:14.037Z</time></trkpt><trkpt lat="45.6391866" lon="10.7069583"><ele>69.0</ele><time>2026-04-06T09:05:15.037Z</time></trkpt><trkpt lat="45.6390678" lon="10.7068674"><ele>67.0</ele><time>2026-04-06T09:05:16.037Z</time></trkpt><trkpt lat="45.6389439" lon="10.7067732"><ele>65.0</ele><time>2026-04-06T09:05:17.037Z</time></trkpt><trkpt lat="45.6388197" lon="10.7066742"><ele>65.0</ele><time>2026-04-06T09:05:18.037Z</time></trkpt><trkpt lat="45.6386948" lon="10.7065672"><ele>65.0</ele><time>2026-04-06T09:05:19.037Z</time></trkpt><trkpt lat="45.6385733" lon="10.7064447"><ele>65.0</ele><time>2026-04-06T09:05:20.037Z</time></trkpt><trkpt lat="45.638459" lon="10.706303"><ele>65.0</ele><time>2026-04-06T09:05:21.037Z</time></trkpt><trkpt lat="45.6383514" lon="10.7061514"><ele>65.5</ele><time>2026-04-06T09:05:22.037Z</time></trkpt><trkpt lat="45.6382514" lon="10.7060032"><ele>66.0</ele><time>2026-04-06T09:05:23.037Z</time></trkpt><trkpt lat="45.6381567" lon="10.7058618"><ele>66.5</ele><time>2026-04-06T09:05:24.037Z</time></trkpt><trkpt lat="45.6380601" lon="10.7057154"><ele>67.0</ele><time>2026-04-06T09:05:25.038Z</time></trkpt><trkpt lat="45.6379633" lon="10.7055725"><ele>67.0</ele><time>2026-04-06T09:05:26.037Z</time></trkpt><trkpt lat="45.6378641" lon="10.7054344"><ele>67.0</ele><time>2026-04-06T09:05:27.037Z</time></trkpt><trkpt lat="45.6377608" lon="10.7053054"><ele>67.0</ele><time>2026-04-06T09:05:28.037Z</time></trkpt><trkpt lat="45.6376434" lon="10.705178"><ele>67.0</ele><time>2026-04-06T09:05:29.037Z</time></trkpt><trkpt lat="45.6375176" lon="10.7050571"><ele>68.0</ele><time>2026-04-06T09:05:30.037Z</time></trkpt><trkpt lat="45.6373855" lon="10.7049448"><ele>69.0</ele><time>2026-04-06T09:05:31.037Z</time></trkpt><trkpt lat="45.637254" lon="10.7048339"><ele>70.0</ele><time>2026-04-06T09:05:32.037Z</time></trkpt><trkpt lat="45.6371254" lon="10.7047232"><ele>70.0</ele><time>2026-04-06T09:05:33.037Z</time></trkpt><trkpt lat="45.6369976" lon="10.7046125"><ele>70.0</ele><time>2026-04-06T09:05:34.037Z</time></trkpt><trkpt lat="45.6368625" lon="10.7044999"><ele>70.0</ele><time>2026-04-06T09:05:35.037Z</time></trkpt><trkpt lat="45.6367243" lon="10.7043885"><ele>69.33333333333333</ele><time>2026-04-06T09:05:36.037Z</time></trkpt><trkpt lat="45.6365882" lon="10.7042789"><ele>68.66666666666667</ele><time>2026-04-06T09:05:37.037Z</time></trkpt><trkpt lat="45.6364544" lon="10.7041701"><ele>68.0</ele><time>2026-04-06T09:05:38.037Z</time></trkpt><trkpt lat="45.6363225" lon="10.704071"><ele>68.0</ele><time>2026-04-06T09:05:39.037Z</time></trkpt><trkpt lat="45.6361905" lon="10.7039796"><ele>68.0</ele><time>2026-04-06T09:05:40.037Z</time></trkpt><trkpt lat="45.6360573" lon="10.703889"><ele>68.0</ele><time>2026-04-06T09:05:41.038Z</time></trkpt><trkpt lat="45.6359217" lon="10.7038022"><ele>68.0</ele><time>2026-04-06T09:05:42.037Z</time></trkpt><trkpt lat="45.6357869" lon="10.7037254"><ele>68.25</ele><time>2026-04-06T09:05:43.037Z</time></trkpt><trkpt lat="45.6356521" lon="10.7036497"><ele>68.5</ele><time>2026-04-06T09:05:44.037Z</time></trkpt><trkpt lat="45.635522" lon="10.7035735"><ele>68.75</ele><time>2026-04-06T09:05:45.037Z</time></trkpt><trkpt lat="45.6353936" lon="10.7034971"><ele>69.0</ele><time>2026-04-06T09:05:46.037Z</time></trkpt><trkpt lat="45.6352667" lon="10.7034191"><ele>69.0</ele><time>2026-04-06T09:05:47.037Z</time></trkpt><trkpt lat="45.6351417" lon="10.7033401"><ele>69.0</ele><time>2026-04-06T09:05:48.037Z</time></trkpt><trkpt lat="45.6350152" lon="10.7032551"><ele>69.0</ele><time>2026-04-06T09:05:49.037Z</time></trkpt><trkpt lat="45.6348814" lon="10.7031632"><ele>69.0</ele><time>2026-04-06T09:05:50.037Z</time></trkpt><trkpt lat="45.6347463" lon="10.7030734"><ele>69.0</ele><time>2026-04-06T09:05:51.037Z</time></trkpt><trkpt lat="45.6346127" lon="10.7029845"><ele>69.0</ele><time>2026-04-06T09:05:52.038Z</time></trkpt><trkpt lat="45.6344848" lon="10.702896"><ele>69.0</ele><time>2026-04-06T09:05:53.037Z</time></trkpt><trkpt lat="45.6343556" lon="10.7028058"><ele>69.0</ele><time>2026-04-06T09:05:54.037Z</time></trkpt><trkpt lat="45.6342276" lon="10.7027162"><ele>68.0</ele><time>2026-04-06T09:05:55.037Z</time></trkpt><trkpt lat="45.6341055" lon="10.7026326"><ele>67.0</ele><time>2026-04-06T09:05:56.037Z</time></trkpt><trkpt lat="45.6339887" lon="10.7025549"><ele>66.0</ele><time>2026-04-06T09:05:57.037Z</time></trkpt><trkpt lat="45.6338721" lon="10.7024785"><ele>65.0</ele><time>2026-04-06T09:05:58.037Z</time></trkpt><trkpt lat="45.6337498" lon="10.7023991"><ele>65.75</ele><time>2026-04-06T09:05:59.038Z</time></trkpt><trkpt lat="45.633617" lon="10.7023133"><ele>66.5</ele><time>2026-04-06T09:06:00.038Z</time></trkpt><trkpt lat="45.6334806" lon="10.7022276"><ele>67.25</ele><time>2026-04-06T09:06:01.038Z</time></trkpt><trkpt lat="45.6333491" lon="10.7021489"><ele>68.0</ele><time>2026-04-06T09:06:02.038Z</time></trkpt><trkpt lat="45.6332207" lon="10.7020754"><ele>68.0</ele><time>2026-04-06T09:06:03.038Z</time></trkpt><trkpt lat="45.6330899" lon="10.702004"><ele>68.0</ele><time>2026-04-06T09:06:04.038Z</time></trkpt><trkpt lat="45.6329576" lon="10.7019314"><ele>68.0</ele><time>2026-04-06T09:06:05.038Z</time></trkpt><trkpt lat="45.6328261" lon="10.7018573"><ele>68.0</ele><time>2026-04-06T09:06:06.038Z</time></trkpt><trkpt lat="45.6327002" lon="10.7017824"><ele>68.25</ele><time>2026-04-06T09:06:07.038Z</time></trkpt><trkpt lat="45.6325786" lon="10.7017101"><ele>68.5</ele><time>2026-04-06T09:06:08.038Z</time></trkpt><trkpt lat="45.6324592" lon="10.7016422"><ele>68.75</ele><time>2026-04-06T09:06:09.038Z</time></trkpt><trkpt lat="45.6323428" lon="10.7015779"><ele>69.0</ele><time>2026-04-06T09:06:10.038Z</time></trkpt><trkpt lat="45.6322295" lon="10.7015137"><ele>69.0</ele><time>2026-04-06T09:06:11.038Z</time></trkpt><trkpt lat="45.6321174" lon="10.7014474"><ele>69.0</ele><time>2026-04-06T09:06:12.039Z</time></trkpt><trkpt lat="45.6320079" lon="10.7013788"><ele>69.0</ele><time>2026-04-06T09:06:13.038Z</time></trkpt><trkpt lat="45.6319001" lon="10.7013102"><ele>69.0</ele><time>2026-04-06T09:06:14.039Z</time></trkpt><trkpt lat="45.6317926" lon="10.7012435"><ele>70.25</ele><time>2026-04-06T09:06:15.038Z</time></trkpt><trkpt lat="45.6316825" lon="10.7011801"><ele>71.5</ele><time>2026-04-06T09:06:16.038Z</time></trkpt><trkpt lat="45.6315701" lon="10.7011178"><ele>72.75</ele><time>2026-04-06T09:06:17.038Z</time></trkpt><trkpt lat="45.631459" lon="10.7010561"><ele>74.0</ele><time>2026-04-06T09:06:18.038Z</time></trkpt><trkpt lat="45.6313485" lon="10.7009928"><ele>72.75</ele><time>2026-04-06T09:06:19.038Z</time></trkpt><trkpt lat="45.6312358" lon="10.7009324"><ele>71.5</ele><time>2026-04-06T09:06:20.038Z</time></trkpt><trkpt lat="45.6311177" lon="10.7008801"><ele>70.25</ele><time>2026-04-06T09:06:21.038Z</time></trkpt><trkpt lat="45.6309941" lon="10.7008368"><ele>69.0</ele><time>2026-04-06T09:06:22.038Z</time></trkpt><trkpt lat="45.6308625" lon="10.7007971"><ele>69.0</ele><time>2026-04-06T09:06:23.038Z</time></trkpt><trkpt lat="45.630729" lon="10.700761"><ele>69.0</ele><time>2026-04-06T09:06:24.038Z</time></trkpt><trkpt lat="45.6305942" lon="10.7007228"><ele>69.0</ele><time>2026-04-06T09:06:25.038Z</time></trkpt><trkpt lat="45.6304645" lon="10.7006834"><ele>69.0</ele><time>2026-04-06T09:06:26.038Z</time></trkpt><trkpt lat="45.6303481" lon="10.7006509"><ele>70.0</ele><time>2026-04-06T09:06:27.038Z</time></trkpt><trkpt lat="45.6302297" lon="10.7006199"><ele>71.0</ele><time>2026-04-06T09:06:28.039Z</time></trkpt><trkpt lat="45.6301033" lon="10.7005797"><ele>72.0</ele><time>2026-04-06T09:06:29.038Z</time></trkpt><trkpt lat="45.6299744" lon="10.7005221"><ele>73.0</ele><time>2026-04-06T09:06:30.039Z</time></trkpt><trkpt lat="45.6298522" lon="10.7004513"><ele>73.0</ele><time>2026-04-06T09:06:31.038Z</time></trkpt><trkpt lat="45.6297409" lon="10.7003823"><ele>73.0</ele><time>2026-04-06T09:06:32.038Z</time></trkpt><trkpt lat="45.6296417" lon="10.7003193"><ele>73.0</ele><time>2026-04-06T09:06:33.038Z</time></trkpt><trkpt lat="45.6295479" lon="10.7002587"><ele>73.0</ele><time>2026-04-06T09:06:34.038Z</time></trkpt><trkpt lat="45.6294573" lon="10.700196"><ele>73.0</ele><time>2026-04-06T09:06:35.039Z</time></trkpt><trkpt lat="45.6293706" lon="10.7001335"><ele>71.8</ele><time>2026-04-06T09:06:36.038Z</time></trkpt><trkpt lat="45.6292851" lon="10.7000767"><ele>70.6</ele><time>2026-04-06T09:06:37.038Z</time></trkpt><trkpt lat="45.6291948" lon="10.7000193"><ele>69.4</ele><time>2026-04-06T09:06:38.038Z</time></trkpt><trkpt lat="45.6291019" lon="10.6999615"><ele>68.2</ele><time>2026-04-06T09:06:39.038Z</time></trkpt><trkpt lat="45.6290153" lon="10.6999065"><ele>67.0</ele><time>2026-04-06T09:06:40.038Z</time></trkpt><trkpt lat="45.6289344" lon="10.6998537"><ele>67.0</ele><time>2026-04-06T09:06:41.038Z</time></trkpt><trkpt lat="45.6288472" lon="10.6997956"><ele>67.0</ele><time>2026-04-06T09:06:42.038Z</time></trkpt><trkpt lat="45.6287509" lon="10.6997313"><ele>67.0</ele><time>2026-04-06T09:06:43.039Z</time></trkpt><trkpt lat="45.6286503" lon="10.6996633"><ele>67.0</ele><time>2026-04-06T09:06:44.038Z</time></trkpt><trkpt lat="45.6285479" lon="10.6995956"><ele>67.0</ele><time>2026-04-06T09:06:45.038Z</time></trkpt><trkpt lat="45.6284414" lon="10.6995273"><ele>66.66666666666666</ele><time>2026-04-06T09:06:46.038Z</time></trkpt><trkpt lat="45.6283397" lon="10.6994621"><ele>66.33333333333333</ele><time>2026-04-06T09:06:47.038Z</time></trkpt><trkpt lat="45.628249" lon="10.699404"><ele>66.0</ele><time>2026-04-06T09:06:48.038Z</time></trkpt><trkpt lat="45.6281739" lon="10.6993572"><ele>65.66666666666667</ele><time>2026-04-06T09:06:49.038Z</time></trkpt><trkpt lat="45.6281061" lon="10.6993123"><ele>65.33333333333334</ele><time>2026-04-06T09:06:50.038Z</time></trkpt><trkpt lat="45.6280465" lon="10.699277"><ele>65.0</ele><time>2026-04-06T09:06:51.038Z</time></trkpt><trkpt lat="45.6279842" lon="10.6992463"><ele>65.0</ele><time>2026-04-06T09:06:52.039Z</time></trkpt><trkpt lat="45.6279215" lon="10.6992213"><ele>65.0</ele><time>2026-04-06T09:06:53.038Z</time></trkpt><trkpt lat="45.6278495" lon="10.6991957"><ele>65.0</ele><time>2026-04-06T09:06:54.038Z</time></trkpt><trkpt lat="45.6277664" lon="10.6991623"><ele>65.0</ele><time>2026-04-06T09:06:55.038Z</time></trkpt><trkpt lat="45.6276722" lon="10.6991229"><ele>65.0</ele><time>2026-04-06T09:06:56.038Z</time></trkpt><trkpt lat="45.6275721" lon="10.699082"><ele>65.0</ele><time>2026-04-06T09:06:57.038Z</time></trkpt><trkpt lat="45.6274653" lon="10.6990405"><ele>66.25</ele><time>2026-04-06T09:06:58.038Z</time></trkpt><trkpt lat="45.627354" lon="10.698998"><ele>67.5</ele><time>2026-04-06T09:06:59.039Z</time></trkpt><trkpt lat="45.6272357" lon="10.6989604"><ele>68.75</ele><time>2026-04-06T09:07:00.038Z</time></trkpt><trkpt lat="45.6271152" lon="10.6989256"><ele>70.0</ele><time>2026-04-06T09:07:01.038Z</time></trkpt><trkpt lat="45.6269933" lon="10.6988907"><ele>71.25</ele><time>2026-04-06T09:07:02.039Z</time></trkpt><trkpt lat="45.6268714" lon="10.6988528"><ele>72.5</ele><time>2026-04-06T09:07:03.039Z</time></trkpt><trkpt lat="45.6267575" lon="10.6988157"><ele>73.75</ele><time>2026-04-06T09:07:04.039Z</time></trkpt><trkpt lat="45.6266482" lon="10.6987795"><ele>75.0</ele><time>2026-04-06T09:07:05.039Z</time></trkpt><trkpt lat="45.6265339" lon="10.6987421"><ele>75.0</ele><time>2026-04-06T09:07:06.039Z</time></trkpt><trkpt lat="45.6264103" lon="10.6986947"><ele>75.0</ele><time>2026-04-06T09:07:07.04Z</time></trkpt><trkpt lat="45.6262808" lon="10.6986278"><ele>75.0</ele><time>2026-04-06T09:07:08.039Z</time></trkpt><trkpt lat="45.6261513" lon="10.6985442"><ele>75.0</ele><time>2026-04-06T09:07:09.039Z</time></trkpt><trkpt lat="45.6260305" lon="10.6984414"><ele>73.75</ele><time>2026-04-06T09:07:10.039Z</time></trkpt><trkpt lat="45.6259192" lon="10.6983374"><ele>72.5</ele><time>2026-04-06T09:07:11.039Z</time></trkpt><trkpt lat="45.6258088" lon="10.6982295"><ele>71.25</ele><time>2026-04-06T09:07:12.039Z</time></trkpt><trkpt lat="45.6256911" lon="10.698118"><ele>70.0</ele><time>2026-04-06T09:07:13.039Z</time></trkpt><trkpt lat="45.625564" lon="10.6980088"><ele>70.0</ele><time>2026-04-06T09:07:14.039Z</time></trkpt><trkpt lat="45.6254296" lon="10.6979114"><ele>70.0</ele><time>2026-04-06T09:07:15.039Z</time></trkpt><trkpt lat="45.6252886" lon="10.6978295"><ele>70.0</ele><time>2026-04-06T09:07:16.039Z</time></trkpt><trkpt lat="45.6251461" lon="10.6977575"><ele>68.0</ele><time>2026-04-06T09:07:17.04Z</time></trkpt><trkpt lat="45.6249958" lon="10.6976942"><ele>66.0</ele><time>2026-04-06T09:07:18.039Z</time></trkpt><trkpt lat="45.6248411" lon="10.6976397"><ele>64.0</ele><time>2026-04-06T09:07:19.039Z</time></trkpt><trkpt lat="45.6246916" lon="10.6975949"><ele>64.0</ele><time>2026-04-06T09:07:20.039Z</time></trkpt><trkpt lat="45.6245481" lon="10.6975527"><ele>64.0</ele><time>2026-04-06T09:07:21.039Z</time></trkpt><trkpt lat="45.6244057" lon="10.6975087"><ele>64.0</ele><time>2026-04-06T09:07:22.04Z</time></trkpt><trkpt lat="45.6242599" lon="10.6974613"><ele>64.0</ele><time>2026-04-06T09:07:23.039Z</time></trkpt><trkpt lat="45.6241128" lon="10.6974135"><ele>65.5</ele><time>2026-04-06T09:07:24.039Z</time></trkpt><trkpt lat="45.6239743" lon="10.6973691"><ele>67.0</ele><time>2026-04-06T09:07:25.039Z</time></trkpt><trkpt lat="45.6238492" lon="10.6973271"><ele>68.5</ele><time>2026-04-06T09:07:26.039Z</time></trkpt><trkpt lat="45.6237293" lon="10.6972835"><ele>70.0</ele><time>2026-04-06T09:07:27.039Z</time></trkpt><trkpt lat="45.6236157" lon="10.6972421"><ele>70.6</ele><time>2026-04-06T09:07:28.039Z</time></trkpt><trkpt lat="45.6235083" lon="10.6972061"><ele>71.2</ele><time>2026-04-06T09:07:29.039Z</time></trkpt><trkpt lat="45.6234056" lon="10.697173"><ele>71.8</ele><time>2026-04-06T09:07:30.04Z</time></trkpt><trkpt lat="45.6233017" lon="10.6971386"><ele>72.4</ele><time>2026-04-06T09:07:31.039Z</time></trkpt><trkpt lat="45.6231922" lon="10.6970997"><ele>73.0</ele><time>2026-04-06T09:07:32.039Z</time></trkpt><trkpt lat="45.6230772" lon="10.6970569"><ele>73.0</ele><time>2026-04-06T09:07:33.039Z</time></trkpt><trkpt lat="45.6229579" lon="10.6970131"><ele>73.0</ele><time>2026-04-06T09:07:34.039Z</time></trkpt><trkpt lat="45.6228355" lon="10.6969702"><ele>73.0</ele><time>2026-04-06T09:07:35.039Z</time></trkpt><trkpt lat="45.6227126" lon="10.6969255"><ele>73.0</ele><time>2026-04-06T09:07:36.039Z</time></trkpt><trkpt lat="45.622591" lon="10.6968801"><ele>71.25</ele><time>2026-04-06T09:07:37.039Z</time></trkpt><trkpt lat="45.6224715" lon="10.696826"><ele>69.5</ele><time>2026-04-06T09:07:38.039Z</time></trkpt><trkpt lat="45.6223564" lon="10.6967693"><ele>67.75</ele><time>2026-04-06T09:07:39.039Z</time></trkpt><trkpt lat="45.6222486" lon="10.6967082"><ele>66.0</ele><time>2026-04-06T09:07:40.039Z</time></trkpt><trkpt lat="45.6221439" lon="10.6966414"><ele>66.0</ele><time>2026-04-06T09:07:41.039Z</time></trkpt><trkpt lat="45.6220414" lon="10.6965661"><ele>66.0</ele><time>2026-04-06T09:07:42.039Z</time></trkpt><trkpt lat="45.6219439" lon="10.6964827"><ele>66.0</ele><time>2026-04-06T09:07:43.039Z</time></trkpt><trkpt lat="45.6218543" lon="10.6963977"><ele>66.0</ele><time>2026-04-06T09:07:44.039Z</time></trkpt><trkpt lat="45.62178" lon="10.6963233"><ele>66.0</ele><time>2026-04-06T09:07:45.039Z</time></trkpt><trkpt lat="45.6217219" lon="10.6962633"><ele>68.83333333333333</ele><time>2026-04-06T09:07:46.039Z</time></trkpt><trkpt lat="45.6216696" lon="10.6962108"><ele>71.66666666666667</ele><time>2026-04-06T09:07:47.039Z</time></trkpt><trkpt lat="45.621573" lon="10.6961285"><ele>74.5</ele><time>2026-04-06T09:07:49.039Z</time></trkpt><trkpt lat="45.6215084" lon="10.6961879"><ele>77.33333333333334</ele><time>2026-04-06T09:07:52.039Z</time></trkpt><trkpt lat="45.6215411" lon="10.6962802"><ele>80.16666666666667</ele><time>2026-04-06T09:07:54.039Z</time></trkpt><trkpt lat="45.6216279" lon="10.6963102"><ele>83.0</ele><time>2026-04-06T09:08:12.04Z</time></trkpt><trkpt lat="45.6216905" lon="10.6963583"><ele>83.0</ele><time>2026-04-06T09:08:13.04Z</time></trkpt><trkpt lat="45.6217619" lon="10.6964198"><ele>83.0</ele><time>2026-04-06T09:08:14.04Z</time></trkpt><trkpt lat="45.621834" lon="10.6964906"><ele>83.0</ele><time>2026-04-06T09:08:15.04Z</time></trkpt><trkpt lat="45.6219035" lon="10.6965756"><ele>83.0</ele><time>2026-04-06T09:08:16.04Z</time></trkpt><trkpt lat="45.6219746" lon="10.6966777"><ele>83.0</ele><time>2026-04-06T09:08:17.04Z</time></trkpt><trkpt lat="45.6220456" lon="10.696782"><ele>83.33333333333334</ele><time>2026-04-06T09:08:18.04Z</time></trkpt><trkpt lat="45.6221145" lon="10.6968817"><ele>83.66666666666667</ele><time>2026-04-06T09:08:19.04Z</time></trkpt><trkpt lat="45.6221748" lon="10.6969708"><ele>84.0</ele><time>2026-04-06T09:08:20.04Z</time></trkpt><trkpt lat="45.6222166" lon="10.6970411"><ele>84.33333333333333</ele><time>2026-04-06T09:08:21.04Z</time></trkpt><trkpt lat="45.6222542" lon="10.697114"><ele>84.66666666666666</ele><time>2026-04-06T09:08:22.04Z</time></trkpt><trkpt lat="45.6223225" lon="10.6972698"><ele>85.0</ele><time>2026-04-06T09:08:24.041Z</time></trkpt><trkpt lat="45.6223569" lon="10.6973609"><ele>85.0</ele><time>2026-04-06T09:08:25.04Z</time></trkpt><trkpt lat="45.622389" lon="10.6974469"><ele>85.0</ele><time>2026-04-06T09:08:26.04Z</time></trkpt><trkpt lat="45.62244" lon="10.6975886"><ele>85.0</ele><time>2026-04-06T09:08:28.04Z</time></trkpt><trkpt lat="45.6225294" lon="10.6977636"><ele>85.0</ele><time>2026-04-06T09:08:30.04Z</time></trkpt><trkpt lat="45.6225716" lon="10.6978406"><ele>85.0</ele><time>2026-04-06T09:08:31.04Z</time></trkpt><trkpt lat="45.622619" lon="10.6979224"><ele>86.16666666666666</ele><time>2026-04-06T09:08:34.04Z</time></trkpt><trkpt lat="45.622678" lon="10.6979673"><ele>87.33333333333333</ele><time>2026-04-06T09:08:38.041Z</time></trkpt><trkpt lat="45.622745" lon="10.6981032"><ele>88.5</ele><time>2026-04-06T09:08:40.04Z</time></trkpt><trkpt lat="45.6227827" lon="10.6981814"><ele>89.66666666666667</ele><time>2026-04-06T09:08:41.041Z</time></trkpt><trkpt lat="45.6228324" lon="10.6983189"><ele>90.83333333333334</ele><time>2026-04-06T09:08:43.04Z</time></trkpt><trkpt lat="45.6227817" lon="10.6984079"><ele>92.0</ele><time>2026-04-06T09:08:46.04Z</time></trkpt><trkpt lat="45.6226813" lon="10.6983823"><ele>94.66666666666667</ele><time>2026-04-06T09:08:48.04Z</time></trkpt><trkpt lat="45.6226143" lon="10.6983402"><ele>97.33333333333334</ele><time>2026-04-06T09:08:49.041Z</time></trkpt><trkpt lat="45.6225538" lon="10.6982774"><ele>100.0</ele><time>2026-04-06T09:08:50.04Z</time></trkpt><trkpt lat="45.6224565" lon="10.6982234"><ele>102.66666666666667</ele><time>2026-04-06T09:08:51.04Z</time></trkpt><trkpt lat="45.622385" lon="10.69816"><ele>105.33333333333333</ele><time>2026-04-06T09:08:52.04Z</time></trkpt><trkpt lat="45.6223105" lon="10.6981215"><ele>108.0</ele><time>2026-04-06T09:08:53.04Z</time></trkpt><trkpt lat="45.6221857" lon="10.6980528"><ele>108.0</ele><time>2026-04-06T09:08:55.04Z</time></trkpt><trkpt lat="45.622066" lon="10.6980077"><ele>108.00000000000001</ele><time>2026-04-06T09:08:56.04Z</time></trkpt><trkpt lat="45.6219901" lon="10.6979301"><ele>108.00000000000001</ele><time>2026-04-06T09:08:57.04Z</time></trkpt><trkpt lat="45.6219207" lon="10.6978758"><ele>108.0</ele><time>2026-04-06T09:08:58.04Z</time></trkpt><trkpt lat="45.6218093" lon="10.6977968"><ele>108.0</ele><time>2026-04-06T09:09:00.04Z</time></trkpt><trkpt lat="45.6217437" lon="10.6977469"><ele>107.5</ele><time>2026-04-06T09:09:01.04Z</time></trkpt><trkpt lat="45.6216737" lon="10.6976826"><ele>107.0</ele><time>2026-04-06T09:09:02.04Z</time></trkpt><trkpt lat="45.6216022" lon="10.6976132"><ele>106.5</ele><time>2026-04-06T09:09:03.04Z</time></trkpt><trkpt lat="45.6215349" lon="10.6975488"><ele>106.0</ele><time>2026-04-06T09:09:04.04Z</time></trkpt><trkpt lat="45.6214722" lon="10.6974945"><ele>105.5</ele><time>2026-04-06T09:09:05.04Z</time></trkpt><trkpt lat="45.6213705" lon="10.6974381"><ele>105.0</ele><time>2026-04-06T09:09:07.041Z</time></trkpt><trkpt lat="45.6213046" lon="10.6974564"><ele>105.0</ele><time>2026-04-06T09:09:13.041Z</time></trkpt><trkpt lat="45.6212767" lon="10.6975467"><ele>105.0</ele><time>2026-04-06T09:09:16.041Z</time></trkpt><trkpt lat="45.6212585" lon="10.69769"><ele>105.0</ele><time>2026-04-06T09:09:19.041Z</time></trkpt><trkpt lat="45.6211877" lon="10.6977474"><ele>105.0</ele><time>2026-04-06T09:09:21.041Z</time></trkpt><trkpt lat="45.621054" lon="10.6977334"><ele>105.0</ele><time>2026-04-06T09:09:23.041Z</time></trkpt><trkpt lat="45.6209565" lon="10.6976957"><ele>107.2</ele><time>2026-04-06T09:09:24.041Z</time></trkpt><trkpt lat="45.6208805" lon="10.6976828"><ele>109.4</ele><time>2026-04-06T09:09:25.041Z</time></trkpt><trkpt lat="45.620801" lon="10.6976721"><ele>111.6</ele><time>2026-04-06T09:09:26.041Z</time></trkpt><trkpt lat="45.6207307" lon="10.6976628"><ele>113.8</ele><time>2026-04-06T09:09:27.042Z</time></trkpt><trkpt lat="45.6206216" lon="10.6976021"><ele>116.0</ele><time>2026-04-06T09:09:29.041Z</time></trkpt><trkpt lat="45.620545" lon="10.6974972"><ele>115.99999999999999</ele><time>2026-04-06T09:09:31.041Z</time></trkpt><trkpt lat="45.6204802" lon="10.6973561"><ele>116.0</ele><time>2026-04-06T09:09:33.041Z</time></trkpt><trkpt lat="45.6204452" lon="10.6972756"><ele>116.0</ele><time>2026-04-06T09:09:34.041Z</time></trkpt><trkpt lat="45.6203697" lon="10.6971868"><ele>116.0</ele><time>2026-04-06T09:09:36.041Z</time></trkpt><trkpt lat="45.6202886" lon="10.6971743"><ele>115.99999999999999</ele><time>2026-04-06T09:09:38.041Z</time></trkpt><trkpt lat="45.6202243" lon="10.6972339"><ele>116.0</ele><time>2026-04-06T09:09:40.042Z</time></trkpt><trkpt lat="45.6201419" lon="10.6973128"><ele>117.49999999999999</ele><time>2026-04-06T09:09:42.041Z</time></trkpt><trkpt lat="45.6200874" lon="10.6974277"><ele>119.0</ele><time>2026-04-06T09:09:43.041Z</time></trkpt><trkpt lat="45.6200608" lon="10.6975277"><ele>120.5</ele><time>2026-04-06T09:09:44.042Z</time></trkpt><trkpt lat="45.6199832" lon="10.6975955"><ele>122.0</ele><time>2026-04-06T09:09:45.041Z</time></trkpt><trkpt lat="45.6199318" lon="10.6976546"><ele>123.49999999999999</ele><time>2026-04-06T09:09:47.041Z</time></trkpt><trkpt lat="45.6198506" lon="10.6976483"><ele>125.0</ele><time>2026-04-06T09:09:51.041Z</time></trkpt><trkpt lat="45.6197863" lon="10.6976142"><ele>125.0</ele><time>2026-04-06T09:09:52.041Z</time></trkpt><trkpt lat="45.6197244" lon="10.6975399"><ele>125.0</ele><time>2026-04-06T09:09:53.041Z</time></trkpt><trkpt lat="45.6196446" lon="10.6974765"><ele>125.0</ele><time>2026-04-06T09:09:54.041Z</time></trkpt><trkpt lat="45.6195353" lon="10.6974513"><ele>125.0</ele><time>2026-04-06T09:09:55.042Z</time></trkpt><trkpt lat="45.619417" lon="10.6974099"><ele>125.0</ele><time>2026-04-06T09:09:56.041Z</time></trkpt><trkpt lat="45.6193057" lon="10.6973712"><ele>126.0</ele><time>2026-04-06T09:09:57.041Z</time></trkpt><trkpt lat="45.6192066" lon="10.6973317"><ele>127.0</ele><time>2026-04-06T09:09:58.041Z</time></trkpt><trkpt lat="45.61912" lon="10.6973026"><ele>128.0</ele><time>2026-04-06T09:09:59.041Z</time></trkpt><trkpt lat="45.619031" lon="10.6972955"><ele>129.0</ele><time>2026-04-06T09:10:00.041Z</time></trkpt><trkpt lat="45.6189283" lon="10.6973061"><ele>130.0</ele><time>2026-04-06T09:10:01.041Z</time></trkpt><trkpt lat="45.6188119" lon="10.6973217"><ele>130.0</ele><time>2026-04-06T09:10:02.041Z</time></trkpt><trkpt lat="45.618692" lon="10.697329"><ele>130.0</ele><time>2026-04-06T09:10:03.041Z</time></trkpt><trkpt lat="45.6185628" lon="10.6973414"><ele>130.0</ele><time>2026-04-06T09:10:04.041Z</time></trkpt><trkpt lat="45.6184532" lon="10.6973601"><ele>130.0</ele><time>2026-04-06T09:10:05.041Z</time></trkpt><trkpt lat="45.6183597" lon="10.6973921"><ele>130.2</ele><time>2026-04-06T09:10:06.041Z</time></trkpt><trkpt lat="45.6182713" lon="10.6974138"><ele>130.4</ele><time>2026-04-06T09:10:07.042Z</time></trkpt><trkpt lat="45.6181944" lon="10.6974288"><ele>130.6</ele><time>2026-04-06T09:10:08.041Z</time></trkpt><trkpt lat="45.6180902" lon="10.697398"><ele>130.8</ele><time>2026-04-06T09:10:10.042Z</time></trkpt><trkpt lat="45.6180424" lon="10.6973009"><ele>131.0</ele><time>2026-04-06T09:10:12.042Z</time></trkpt><trkpt lat="45.6179453" lon="10.6971746"><ele>131.0</ele><time>2026-04-06T09:10:14.042Z</time></trkpt><trkpt lat="45.6178268" lon="10.6970956"><ele>131.0</ele><time>2026-04-06T09:10:16.042Z</time></trkpt><trkpt lat="45.6177816" lon="10.6970317"><ele>131.0</ele><time>2026-04-06T09:10:18.042Z</time></trkpt><trkpt lat="45.6177792" lon="10.6969156"><ele>131.0</ele><time>2026-04-06T09:10:21.042Z</time></trkpt><trkpt lat="45.6176987" lon="10.6968653"><ele>131.0</ele><time>2026-04-06T09:10:23.042Z</time></trkpt><trkpt lat="45.6175765" lon="10.6968452"><ele>130.5</ele><time>2026-04-06T09:10:25.042Z</time></trkpt><trkpt lat="45.6175086" lon="10.6968495"><ele>130.0</ele><time>2026-04-06T09:10:26.042Z</time></trkpt><trkpt lat="45.6174269" lon="10.696846"><ele>129.5</ele><time>2026-04-06T09:10:27.042Z</time></trkpt><trkpt lat="45.6173507" lon="10.6968315"><ele>129.0</ele><time>2026-04-06T09:10:28.042Z</time></trkpt><trkpt lat="45.6172825" lon="10.6967961"><ele>128.5</ele><time>2026-04-06T09:10:29.042Z</time></trkpt><trkpt lat="45.6171986" lon="10.69679"><ele>128.0</ele><time>2026-04-06T09:10:31.042Z</time></trkpt><trkpt lat="45.6171496" lon="10.6969613"><ele>130.8</ele><time>2026-04-06T09:10:33.042Z</time></trkpt><trkpt lat="45.6171593" lon="10.6970677"><ele>133.60000000000002</ele><time>2026-04-06T09:10:34.042Z</time></trkpt><trkpt lat="45.6171945" lon="10.6971845"><ele>136.39999999999998</ele><time>2026-04-06T09:10:35.042Z</time></trkpt><trkpt lat="45.6172406" lon="10.6973212"><ele>139.2</ele><time>2026-04-06T09:10:36.042Z</time></trkpt><trkpt lat="45.6172863" lon="10.6974757"><ele>142.0</ele><time>2026-04-06T09:10:37.042Z</time></trkpt><trkpt lat="45.6173259" lon="10.6976421"><ele>145.8</ele><time>2026-04-06T09:10:38.042Z</time></trkpt><trkpt lat="45.6173669" lon="10.6978186"><ele>149.6</ele><time>2026-04-06T09:10:39.042Z</time></trkpt><trkpt lat="45.6174124" lon="10.6979873"><ele>153.4</ele><time>2026-04-06T09:10:40.042Z</time></trkpt><trkpt lat="45.6174557" lon="10.6981206"><ele>157.20000000000002</ele><time>2026-04-06T09:10:41.042Z</time></trkpt><trkpt lat="45.6175029" lon="10.6982128"><ele>161.0</ele><time>2026-04-06T09:10:42.042Z</time></trkpt><trkpt lat="45.6175551" lon="10.6982783"><ele>161.0</ele><time>2026-04-06T09:10:43.042Z</time></trkpt><trkpt lat="45.6176212" lon="10.6983143"><ele>161.0</ele><time>2026-04-06T09:10:44.042Z</time></trkpt><trkpt lat="45.617698" lon="10.6983352"><ele>161.0</ele><time>2026-04-06T09:10:45.042Z</time></trkpt><trkpt lat="45.617769" lon="10.6983515"><ele>161.0</ele><time>2026-04-06T09:10:46.042Z</time></trkpt><trkpt lat="45.6178398" lon="10.6984629"><ele>161.0</ele><time>2026-04-06T09:10:48.042Z</time></trkpt><trkpt lat="45.6178548" lon="10.698654"><ele>163.0</ele><time>2026-04-06T09:10:50.042Z</time></trkpt><trkpt lat="45.6178586" lon="10.6987825"><ele>165.0</ele><time>2026-04-06T09:10:51.042Z</time></trkpt><trkpt lat="45.6178673" lon="10.6989241"><ele>167.0</ele><time>2026-04-06T09:10:52.042Z</time></trkpt><trkpt lat="45.6178659" lon="10.6990586"><ele>169.0</ele><time>2026-04-06T09:10:53.042Z</time></trkpt><trkpt lat="45.6178745" lon="10.6991756"><ele>171.0</ele><time>2026-04-06T09:10:54.042Z</time></trkpt><trkpt lat="45.6179002" lon="10.6992688"><ele>173.0</ele><time>2026-04-06T09:10:55.042Z</time></trkpt><trkpt lat="45.6179488" lon="10.6993385"><ele>173.0</ele><time>2026-04-06T09:10:56.042Z</time></trkpt><trkpt lat="45.6180106" lon="10.6993813"><ele>173.0</ele><time>2026-04-06T09:10:57.042Z</time></trkpt><trkpt lat="45.6180926" lon="10.6994115"><ele>173.0</ele><time>2026-04-06T09:10:58.042Z</time></trkpt><trkpt lat="45.6181643" lon="10.6994513"><ele>173.0</ele><time>2026-04-06T09:10:59.042Z</time></trkpt><trkpt lat="45.6182214" lon="10.6995668"><ele>173.0</ele><time>2026-04-06T09:11:01.042Z</time></trkpt><trkpt lat="45.6182367" lon="10.6997182"><ele>173.0</ele><time>2026-04-06T09:11:03.042Z</time></trkpt><trkpt lat="45.6182681" lon="10.6998803"><ele>174.66666666666666</ele><time>2026-04-06T09:11:05.042Z</time></trkpt><trkpt lat="45.6182928" lon="10.6999885"><ele>176.33333333333331</ele><time>2026-04-06T09:11:07.042Z</time></trkpt><trkpt lat="45.6183533" lon="10.7000632"><ele>178.0</ele><time>2026-04-06T09:11:09.042Z</time></trkpt><trkpt lat="45.6184276" lon="10.7000774"><ele>179.66666666666666</ele><time>2026-04-06T09:11:10.042Z</time></trkpt><trkpt lat="45.618515" lon="10.7000652"><ele>181.33333333333334</ele><time>2026-04-06T09:11:11.042Z</time></trkpt><trkpt lat="45.6185972" lon="10.7000439"><ele>183.0</ele><time>2026-04-06T09:11:12.042Z</time></trkpt><trkpt lat="45.618662" lon="10.7000325"><ele>183.0</ele><time>2026-04-06T09:11:13.044Z</time></trkpt><trkpt lat="45.6187251" lon="10.7000393"><ele>183.0</ele><time>2026-04-06T09:11:15.043Z</time></trkpt><trkpt lat="45.6188052" lon="10.7000659"><ele>183.0</ele><time>2026-04-06T09:11:17.044Z</time></trkpt><trkpt lat="45.6188642" lon="10.7001553"><ele>183.0</ele><time>2026-04-06T09:11:19.043Z</time></trkpt><trkpt lat="45.6188353" lon="10.7003239"><ele>183.0</ele><time>2026-04-06T09:11:21.043Z</time></trkpt><trkpt lat="45.6187988" lon="10.7004181"><ele>183.0</ele><time>2026-04-06T09:11:22.043Z</time></trkpt><trkpt lat="45.6187608" lon="10.7005192"><ele>186.83333333333334</ele><time>2026-04-06T09:11:23.043Z</time></trkpt><trkpt lat="45.6187286" lon="10.7006208"><ele>190.66666666666669</ele><time>2026-04-06T09:11:24.043Z</time></trkpt><trkpt lat="45.6187092" lon="10.7007278"><ele>194.5</ele><time>2026-04-06T09:11:25.043Z</time></trkpt><trkpt lat="45.6187101" lon="10.7008334"><ele>198.33333333333334</ele><time>2026-04-06T09:11:26.043Z</time></trkpt><trkpt lat="45.6187328" lon="10.7009365"><ele>202.16666666666669</ele><time>2026-04-06T09:11:27.043Z</time></trkpt><trkpt lat="45.6187769" lon="10.7010242"><ele>206.0</ele><time>2026-04-06T09:11:28.043Z</time></trkpt><trkpt lat="45.6188387" lon="10.7010978"><ele>211.16666666666669</ele><time>2026-04-06T09:11:29.043Z</time></trkpt><trkpt lat="45.618921" lon="10.7011519"><ele>216.33333333333334</ele><time>2026-04-06T09:11:30.043Z</time></trkpt><trkpt lat="45.6190098" lon="10.7011878"><ele>221.5</ele><time>2026-04-06T09:11:31.043Z</time></trkpt><trkpt lat="45.6190902" lon="10.7012147"><ele>226.66666666666669</ele><time>2026-04-06T09:11:32.043Z</time></trkpt><trkpt lat="45.6191663" lon="10.7012438"><ele>231.83333333333334</ele><time>2026-04-06T09:11:33.043Z</time></trkpt><trkpt lat="45.6192289" lon="10.7012701"><ele>237.0</ele><time>2026-04-06T09:11:34.043Z</time></trkpt><trkpt lat="45.6193248" lon="10.7012707"><ele>237.0</ele><time>2026-04-06T09:11:36.043Z</time></trkpt><trkpt lat="45.6194106" lon="10.7012108"><ele>237.0</ele><time>2026-04-06T09:11:38.043Z</time></trkpt><trkpt lat="45.6194484" lon="10.7013142"><ele>237.0</ele><time>2026-04-06T09:11:41.043Z</time></trkpt><trkpt lat="45.6193589" lon="10.7014538"><ele>237.0</ele><time>2026-04-06T09:11:43.043Z</time></trkpt><trkpt lat="45.6192946" lon="10.7015447"><ele>237.0</ele><time>2026-04-06T09:11:44.043Z</time></trkpt><trkpt lat="45.6192407" lon="10.7016141"><ele>237.0</ele><time>2026-04-06T09:11:45.043Z</time></trkpt><trkpt lat="45.6191449" lon="10.7016737"><ele>237.0</ele><time>2026-04-06T09:11:47.043Z</time></trkpt><trkpt lat="45.6190697" lon="10.7016821"><ele>237.0</ele><time>2026-04-06T09:11:48.044Z</time></trkpt><trkpt lat="45.6189799" lon="10.7016823"><ele>237.0</ele><time>2026-04-06T09:11:49.043Z</time></trkpt><trkpt lat="45.6188811" lon="10.7017006"><ele>237.0</ele><time>2026-04-06T09:11:50.043Z</time></trkpt><trkpt lat="45.6187847" lon="10.7017145"><ele>237.0</ele><time>2026-04-06T09:11:51.043Z</time></trkpt><trkpt lat="45.6186907" lon="10.7017084"><ele>237.0</ele><time>2026-04-06T09:11:52.043Z</time></trkpt><trkpt lat="45.6186242" lon="10.701688"><ele>237.0</ele><time>2026-04-06T09:11:53.043Z</time></trkpt><trkpt lat="45.6185541" lon="10.7016479"><ele>237.0</ele><time>2026-04-06T09:11:55.043Z</time></trkpt><trkpt lat="45.6184607" lon="10.7017204"><ele>237.0</ele><time>2026-04-06T09:11:57.043Z</time></trkpt><trkpt lat="45.6184326" lon="10.7018017"><ele>237.0</ele><time>2026-04-06T09:11:59.043Z</time></trkpt><trkpt lat="45.6183934" lon="10.7018723"><ele>242.66666666666666</ele><time>2026-04-06T09:12:16.044Z</time></trkpt><trkpt lat="45.6182998" lon="10.7019342"><ele>248.33333333333331</ele><time>2026-04-06T09:12:19.044Z</time></trkpt><trkpt lat="45.618213" lon="10.7019907"><ele>254.0</ele><time>2026-04-06T09:12:21.044Z</time></trkpt><trkpt lat="45.6181269" lon="10.702057"><ele>259.66666666666663</ele><time>2026-04-06T09:12:30.045Z</time></trkpt><trkpt lat="45.6180574" lon="10.702122"><ele>265.3333333333333</ele><time>2026-04-06T09:12:32.044Z</time></trkpt><trkpt lat="45.6179948" lon="10.7021592"><ele>271.0</ele><time>2026-04-06T09:12:34.044Z</time></trkpt><trkpt lat="45.617919" lon="10.7022083"><ele>271.0</ele><time>2026-04-06T09:12:56.044Z</time></trkpt><trkpt lat="45.6178524" lon="10.7022376"><ele>271.0</ele><time>2026-04-06T09:12:58.044Z</time></trkpt><trkpt lat="45.6177827" lon="10.7022252"><ele>271.0</ele><time>2026-04-06T09:13:00.044Z</time></trkpt><trkpt lat="45.6177019" lon="10.7021325"><ele>271.0</ele><time>2026-04-06T09:13:02.044Z</time></trkpt><trkpt lat="45.6176573" lon="10.7020538"><ele>271.0</ele><time>2026-04-06T09:13:03.044Z</time></trkpt><trkpt lat="45.6176068" lon="10.7019596"><ele>271.0</ele><time>2026-04-06T09:13:04.045Z</time></trkpt><trkpt lat="45.6175708" lon="10.7018783"><ele>271.0</ele><time>2026-04-06T09:13:05.044Z</time></trkpt><trkpt lat="45.6175176" lon="10.7017832"><ele>271.0</ele><time>2026-04-06T09:13:08.044Z</time></trkpt><trkpt lat="45.6174314" lon="10.7017847"><ele>271.0</ele><time>2026-04-06T09:13:10.044Z</time></trkpt><trkpt lat="45.6173732" lon="10.7018975"><ele>271.0</ele><time>2026-04-06T09:13:12.044Z</time></trkpt><trkpt lat="45.6173611" lon="10.7020048"><ele>271.0</ele><time>2026-04-06T09:13:13.044Z</time></trkpt><trkpt lat="45.6173418" lon="10.7021115"><ele>271.0</ele><time>2026-04-06T09:13:14.044Z</time></trkpt><trkpt lat="45.6173081" lon="10.7022033"><ele>271.0</ele><time>2026-04-06T09:13:15.044Z</time></trkpt><trkpt lat="45.6172844" lon="10.7022885"><ele>271.0</ele><time>2026-04-06T09:13:18.044Z</time></trkpt><trkpt lat="45.6172405" lon="10.7023834"><ele>271.0</ele><time>2026-04-06T09:13:31.045Z</time></trkpt><trkpt lat="45.6171843" lon="10.7024257"><ele>271.0</ele><time>2026-04-06T09:13:34.045Z</time></trkpt><trkpt lat="45.6171298" lon="10.7024829"><ele>271.0</ele><time>2026-04-06T09:13:46.045Z</time></trkpt><trkpt lat="45.6170366" lon="10.7025755"><ele>271.0</ele><time>2026-04-06T09:13:48.045Z</time></trkpt><trkpt lat="45.6169804" lon="10.7026192"><ele>272.8</ele><time>2026-04-06T09:13:49.045Z</time></trkpt><trkpt lat="45.6168951" lon="10.7027197"><ele>274.6</ele><time>2026-04-06T09:13:51.046Z</time></trkpt><trkpt lat="45.6168601" lon="10.7029024"><ele>276.4</ele><time>2026-04-06T09:13:53.045Z</time></trkpt><trkpt lat="45.6168546" lon="10.7030218"><ele>278.2</ele><time>2026-04-06T09:13:54.045Z</time></trkpt><trkpt lat="45.616844" lon="10.703122"><ele>280.0</ele><time>2026-04-06T09:13:55.045Z</time></trkpt><trkpt lat="45.616795" lon="10.7032432"><ele>283.16666666666663</ele><time>2026-04-06T09:13:57.045Z</time></trkpt><trkpt lat="45.6167238" lon="10.703294"><ele>286.3333333333333</ele><time>2026-04-06T09:13:59.045Z</time></trkpt><trkpt lat="45.6166552" lon="10.7033288"><ele>289.5</ele><time>2026-04-06T09:14:01.046Z</time></trkpt><trkpt lat="45.6165625" lon="10.7033139"><ele>292.6666666666667</ele><time>2026-04-06T09:14:03.045Z</time></trkpt><trkpt lat="45.6164774" lon="10.7032782"><ele>295.83333333333337</ele><time>2026-04-06T09:14:04.045Z</time></trkpt><trkpt lat="45.6163764" lon="10.7032178"><ele>299.0</ele><time>2026-04-06T09:14:05.045Z</time></trkpt><trkpt lat="45.6162645" lon="10.7031624"><ele>299.0</ele><time>2026-04-06T09:14:06.045Z</time></trkpt><trkpt lat="45.616167" lon="10.7031287"><ele>299.0</ele><time>2026-04-06T09:14:07.045Z</time></trkpt><trkpt lat="45.6160866" lon="10.703105"><ele>299.0</ele><time>2026-04-06T09:14:08.045Z</time></trkpt><trkpt lat="45.616007" lon="10.7030895"><ele>299.0</ele><time>2026-04-06T09:14:09.045Z</time></trkpt><trkpt lat="45.6159244" lon="10.7030822"><ele>299.0</ele><time>2026-04-06T09:14:10.045Z</time></trkpt><trkpt lat="45.6158391" lon="10.703086"><ele>299.0</ele><time>2026-04-06T09:14:11.045Z</time></trkpt><trkpt lat="45.6157577" lon="10.7031055"><ele>301.5</ele><time>2026-04-06T09:14:12.045Z</time></trkpt><trkpt lat="45.6156762" lon="10.7031323"><ele>304.0</ele><time>2026-04-06T09:14:13.045Z</time></trkpt><trkpt lat="45.6155849" lon="10.7031412"><ele>306.5</ele><time>2026-04-06T09:14:15.045Z</time></trkpt><trkpt lat="45.6155143" lon="10.703096"><ele>309.0</ele><time>2026-04-06T09:14:36.046Z</time></trkpt><trkpt lat="45.6154441" lon="10.7030668"><ele>311.5</ele><time>2026-04-06T09:14:39.046Z</time></trkpt><trkpt lat="45.615361" lon="10.7030344"><ele>314.0</ele><time>2026-04-06T09:14:49.046Z</time></trkpt><trkpt lat="45.6152597" lon="10.7030024"><ele>314.5</ele><time>2026-04-06T09:14:51.046Z</time></trkpt><trkpt lat="45.6151471" lon="10.7029454"><ele>315.0</ele><time>2026-04-06T09:14:53.046Z</time></trkpt><trkpt lat="45.6150864" lon="10.702911"><ele>315.5</ele><time>2026-04-06T09:14:54.046Z</time></trkpt><trkpt lat="45.6150002" lon="10.7028629"><ele>316.0</ele><time>2026-04-06T09:14:56.046Z</time></trkpt><trkpt lat="45.6149382" lon="10.7028354"><ele>316.5</ele><time>2026-04-06T09:14:58.046Z</time></trkpt><trkpt lat="45.6148747" lon="10.7028202"><ele>317.0</ele><time>2026-04-06T09:15:00.046Z</time></trkpt><trkpt lat="45.6148116" lon="10.7028461"><ele>317.0</ele><time>2026-04-06T09:15:02.046Z</time></trkpt><trkpt lat="45.6147507" lon="10.7029393"><ele>317.0</ele><time>2026-04-06T09:15:05.046Z</time></trkpt><trkpt lat="45.6147025" lon="10.7030272"><ele>317.0</ele><time>2026-04-06T09:15:16.046Z</time></trkpt><trkpt lat="45.6147172" lon="10.7031301"><ele>317.0</ele><time>2026-04-06T09:15:25.047Z</time></trkpt><trkpt lat="45.6147702" lon="10.7031802"><ele>317.0</ele><time>2026-04-06T09:15:26.046Z</time></trkpt><trkpt lat="45.6148514" lon="10.703248"><ele>317.0</ele><time>2026-04-06T09:15:27.047Z</time></trkpt><trkpt lat="45.6149477" lon="10.703332"><ele>317.0</ele><time>2026-04-06T09:15:28.047Z</time></trkpt><trkpt lat="45.6150395" lon="10.7034294"><ele>317.0</ele><time>2026-04-06T09:15:29.047Z</time></trkpt><trkpt lat="45.6151292" lon="10.7035282"><ele>317.0</ele><time>2026-04-06T09:15:30.047Z</time></trkpt><trkpt lat="45.6152286" lon="10.7036271"><ele>317.0</ele><time>2026-04-06T09:15:31.047Z</time></trkpt><trkpt lat="45.6153328" lon="10.7037285"><ele>317.83333333333337</ele><time>2026-04-06T09:15:32.048Z</time></trkpt><trkpt lat="45.6154237" lon="10.7038234"><ele>318.6666666666667</ele><time>2026-04-06T09:15:33.047Z</time></trkpt><trkpt lat="45.6155014" lon="10.7039064"><ele>319.5</ele><time>2026-04-06T09:15:34.047Z</time></trkpt><trkpt lat="45.61556" lon="10.7039675"><ele>320.3333333333333</ele><time>2026-04-06T09:15:35.047Z</time></trkpt><trkpt lat="45.6156297" lon="10.7040479"><ele>321.16666666666663</ele><time>2026-04-06T09:15:37.047Z</time></trkpt><trkpt lat="45.6155946" lon="10.7041472"><ele>322.0</ele><time>2026-04-06T09:15:40.047Z</time></trkpt><trkpt lat="45.6154841" lon="10.7041518"><ele>322.0</ele><time>2026-04-06T09:15:42.047Z</time></trkpt><trkpt lat="45.6153728" lon="10.7041209"><ele>322.0</ele><time>2026-04-06T09:15:44.048Z</time></trkpt><trkpt lat="45.6152626" lon="10.7041073"><ele>322.0</ele><time>2026-04-06T09:15:46.047Z</time></trkpt><trkpt lat="45.6151859" lon="10.70411"><ele>322.0</ele><time>2026-04-06T09:15:48.047Z</time></trkpt><trkpt lat="45.6151081" lon="10.7041206"><ele>322.0</ele><time>2026-04-06T09:15:55.048Z</time></trkpt><trkpt lat="45.6151823" lon="10.7041557"><ele>324.0</ele><time>2026-04-06T09:16:19.048Z</time></trkpt></trkseg></trk></gpx>